Wetterdaten: aktuell Montag, 24.09.2018 12:20
Datum Zeit Temp. A. Feuchte A. Luftdruck Regen Wind Richtung Richtung Sonnenschein UV-Index Solar Windchill Windben
24.09.2018 12:20 11.4 C 78 % 1030.4 mbar 0.00 mm 9.0 km/h N-NO 16 2 min 2.1 UV-I 297 W/m 9.7 C 12.9 km/h
24.09.2018 12:18 11.4 C 79 % 1030.4 mbar 0.00 mm 8.5 km/h N 350 2 min 1.9 UV-I 288 W/m 10.0 C 14.5 km/h
24.09.2018 12:16 11.3 C 79 % 1030.5 mbar 0.00 mm 7.2 km/h N-NO 26 2 min 1.8 UV-I 287 W/m 10.8 C 12.9 km/h
24.09.2018 12:14 11.3 C 80 % 1030.4 mbar 0.00 mm 11.9 km/h O-NO 75 2 min 1.8 UV-I 281 W/m 8.1 C 17.7 km/h
24.09.2018 12:12 11.3 C 80 % 1030.4 mbar 0.00 mm 6.8 km/h N-NO 25 2 min 1.7 UV-I 272 W/m 11.0 C 11.3 km/h
24.09.2018 12:10 11.3 C 79 % 1030.4 mbar 0.00 mm 8.2 km/h N-NO 19 2 min 1.8 UV-I 297 W/m 10.1 C 16.1 km/h
24.09.2018 12:08 11.3 C 81 % 1030.4 mbar 0.00 mm 8.8 km/h N-NO 28 2 min 1.9 UV-I 309 W/m 9.7 C 14.5 km/h
24.09.2018 12:06 11.2 C 80 % 1030.3 mbar 0.00 mm 6.8 km/h NO 51 2 min 1.9 UV-I 304 W/m 10.9 C 11.3 km/h
24.09.2018 12:04 11.2 C 81 % 1030.3 mbar 0.00 mm 6.1 km/h NO 43 2 min 1.7 UV-I 283 W/m 11.2 C 9.7 km/h
24.09.2018 12:02 11.2 C 80 % 1030.3 mbar 0.00 mm 6.6 km/h NO 37 0 min 1.6 UV-I 260 W/m 11.1 C 12.9 km/h
24.09.2018 12:00 11.2 C 81 % 1030.3 mbar 0.00 mm 9.4 km/h O-NO 70 0 min 1.6 UV-I 269 W/m 9.3 C 14.5 km/h
24.09.2018 11:58 11.1 C 81 % 1030.3 mbar 0.00 mm 14.2 km/h NO 45 0 min 1.5 UV-I 258 W/m 6.8 C 19.3 km/h
24.09.2018 11:56 11.1 C 81 % 1030.3 mbar 0.00 mm 9.6 km/h O-NO 58 0 min 1.3 UV-I 234 W/m 9.0 C 14.5 km/h
24.09.2018 11:54 11.0 C 82 % 1030.3 mbar 0.00 mm 11.7 km/h NO 54 0 min 1.4 UV-I 234 W/m 7.8 C 17.7 km/h
24.09.2018 11:52 11.0 C 81 % 1030.2 mbar 0.00 mm 11.6 km/h NO 42 0 min 1.3 UV-I 227 W/m 7.9 C 19.3 km/h
24.09.2018 11:50 10.9 C 82 % 1030.2 mbar 0.00 mm 9.6 km/h O-NO 57 0 min 1.1 UV-I 185 W/m 8.8 C 14.5 km/h
24.09.2018 11:48 10.9 C 82 % 1030.3 mbar 0.00 mm 10.6 km/h NO 54 0 min 0.9 UV-I 165 W/m 8.3 C 16.1 km/h
24.09.2018 11:46 10.8 C 81 % 1030.3 mbar 0.00 mm 7.5 km/h NO 35 0 min 1.1 UV-I 171 W/m 10.0 C 12.9 km/h
24.09.2018 11:44 10.8 C 81 % 1030.3 mbar 0.00 mm 9.2 km/h N-NO 23 0 min 1.2 UV-I 213 W/m 8.9 C 17.7 km/h
24.09.2018 11:42 10.8 C 82 % 1030.3 mbar 0.00 mm 5.0 km/h N-NO 33 0 min 1.3 UV-I 229 W/m 10.8 C 8.0 km/h
24.09.2018 11:40 10.8 C 82 % 1030.3 mbar 0.00 mm 9.3 km/h NO 48 0 min 1.4 UV-I 237 W/m 8.9 C 14.5 km/h
24.09.2018 11:38 10.8 C 81 % 1030.2 mbar 0.00 mm 7.3 km/h N-NO 19 0 min 1.3 UV-I 218 W/m 10.2 C 11.3 km/h
24.09.2018 11:36 10.8 C 82 % 1030.3 mbar 0.00 mm 11.4 km/h N-NO 14 0 min 1.2 UV-I 195 W/m 7.7 C 17.7 km/h
24.09.2018 11:34 10.8 C 82 % 1030.2 mbar 0.00 mm 9.7 km/h NO 43 0 min 1.0 UV-I 176 W/m 8.6 C 14.5 km/h
24.09.2018 11:32 10.8 C 83 % 1030.2 mbar 0.00 mm 11.3 km/h N 353 0 min 1.1 UV-I 176 W/m 7.8 C 19.3 km/h
24.09.2018 11:30 10.8 C 83 % 1030.2 mbar 0.00 mm 9.9 km/h O-NO 60 0 min 1.0 UV-I 171 W/m 8.5 C 16.1 km/h
24.09.2018 11:28 10.8 C 83 % 1030.2 mbar 0.00 mm 8.2 km/h NO 45 0 min 1.0 UV-I 163 W/m 9.6 C 11.3 km/h
24.09.2018 11:26 10.8 C 82 % 1030.2 mbar 0.00 mm 12.2 km/h NO 37 0 min 1.0 UV-I 169 W/m 7.3 C 19.3 km/h
24.09.2018 11:24 10.8 C 82 % 1030.1 mbar 0.00 mm 12.0 km/h O 85 0 min 1.0 UV-I 174 W/m 7.4 C 19.3 km/h
24.09.2018 11:22 10.8 C 83 % 1030.0 mbar 0.00 mm 9.1 km/h NO 39 0 min 1.1 UV-I 178 W/m 9.0 C 16.1 km/h
24.09.2018 11:20 10.8 C 84 % 1030.0 mbar 0.00 mm 14.0 km/h NO 37 0 min 1.0 UV-I 176 W/m 6.5 C 22.5 km/h
24.09.2018 11:18 10.8 C 84 % 1030.0 mbar 0.00 mm 10.6 km/h O-NO 60 0 min 0.9 UV-I 169 W/m 8.2 C 16.1 km/h
24.09.2018 11:16 10.8 C 84 % 1030.0 mbar 0.00 mm 10.1 km/h O-NO 57 0 min 0.9 UV-I 158 W/m 8.4 C 17.7 km/h
24.09.2018 11:14 10.8 C 83 % 1030.0 mbar 0.00 mm 7.4 km/h O-NO 64 0 min 0.9 UV-I 169 W/m 10.1 C 12.9 km/h
24.09.2018 11:12 10.8 C 84 % 1030.0 mbar 0.00 mm 10.7 km/h NO 51 0 min 0.9 UV-I 160 W/m 8.1 C 16.1 km/h
24.09.2018 11:10 10.8 C 84 % 1030.0 mbar 0.00 mm 12.2 km/h N-NO 27 0 min 0.9 UV-I 169 W/m 7.3 C 22.5 km/h
24.09.2018 11:08 10.8 C 83 % 1029.9 mbar 0.00 mm 9.8 km/h O-NO 71 0 min 0.9 UV-I 158 W/m 8.6 C 19.3 km/h
24.09.2018 11:06 10.8 C 83 % 1029.9 mbar 0.00 mm 11.2 km/h NO 54 0 min 0.8 UV-I 151 W/m 7.8 C 17.7 km/h
24.09.2018 11:04 10.8 C 84 % 1029.8 mbar 0.00 mm 11.3 km/h O-NO 63 0 min 0.8 UV-I 148 W/m 7.8 C 16.1 km/h
24.09.2018 11:02 10.8 C 83 % 1029.8 mbar 0.00 mm 15.6 km/h NO 37 0 min 0.7 UV-I 137 W/m 5.9 C 20.9 km/h
24.09.2018 11:00 10.8 C 84 % 1029.8 mbar 0.00 mm 16.3 km/h N 2 0 min 0.9 UV-I 162 W/m 5.6 C 25.7 km/h
24.09.2018 10:58 10.8 C 84 % 1029.8 mbar 0.00 mm 10.9 km/h N-NO 31 0 min 0.9 UV-I 165 W/m 8.0 C 16.1 km/h
24.09.2018 10:56 10.8 C 83 % 1029.8 mbar 0.00 mm 11.2 km/h O-NO 66 0 min 0.8 UV-I 160 W/m 7.8 C 17.7 km/h
24.09.2018 10:54 10.8 C 83 % 1029.8 mbar 0.00 mm 12.7 km/h N 5 0 min 0.8 UV-I 156 W/m 7.1 C 17.7 km/h
24.09.2018 10:52 10.8 C 84 % 1029.8 mbar 0.00 mm 11.5 km/h NO 53 0 min 0.7 UV-I 135 W/m 7.7 C 19.3 km/h
24.09.2018 10:50 10.8 C 83 % 1029.8 mbar 0.00 mm 7.4 km/h N-NO 27 0 min 0.8 UV-I 148 W/m 10.1 C 12.9 km/h
24.09.2018 10:48 10.8 C 83 % 1029.8 mbar 0.00 mm 9.2 km/h N 353 0 min 0.8 UV-I 165 W/m 8.9 C 14.5 km/h
24.09.2018 10:46 10.8 C 84 % 1029.8 mbar 0.00 mm 8.9 km/h O-NO 60 0 min 0.9 UV-I 186 W/m 9.1 C 14.5 km/h
24.09.2018 10:44 10.8 C 85 % 1029.7 mbar 0.00 mm 10.7 km/h N 4 0 min 0.8 UV-I 174 W/m 8.1 C 16.1 km/h
24.09.2018 10:42 10.8 C 85 % 1029.7 mbar 0.00 mm 9.2 km/h NO 49 0 min 0.8 UV-I 167 W/m 8.9 C 16.1 km/h
24.09.2018 10:40 10.8 C 85 % 1029.7 mbar 0.00 mm 8.0 km/h NO 44 0 min 0.8 UV-I 169 W/m 9.7 C 14.5 km/h
24.09.2018 10:38 10.8 C 86 % 1029.7 mbar 0.00 mm 9.3 km/h O-NO 73 0 min 0.8 UV-I 169 W/m 8.9 C 14.5 km/h
24.09.2018 10:36 10.8 C 87 % 1029.6 mbar 0.00 mm 9.3 km/h NO 42 0 min 0.7 UV-I 162 W/m 8.9 C 12.9 km/h
24.09.2018 10:34 10.7 C 87 % 1029.6 mbar 0.00 mm 6.0 km/h NO 53 0 min 0.7 UV-I 172 W/m 10.7 C 16.1 km/h
24.09.2018 10:32 10.6 C 87 % 1029.5 mbar 0.00 mm 4.7 km/h N 358 0 min 0.7 UV-I 181 W/m 10.6 C 9.7 km/h
24.09.2018 10:30 10.6 C 87 % 1029.5 mbar 0.00 mm 6.6 km/h NO 40 0 min 0.8 UV-I 186 W/m 10.5 C 14.5 km/h
24.09.2018 10:28 10.6 C 87 % 1029.5 mbar 0.00 mm 1.4 km/h N-NO 20 0 min 0.7 UV-I 167 W/m 10.6 C 4.8 km/h
24.09.2018 10:26 10.5 C 87 % 1029.4 mbar 0.00 mm 3.6 km/h N-NO 12 0 min 0.6 UV-I 142 W/m 10.5 C 6.4 km/h
24.09.2018 10:24 10.5 C 86 % 1029.4 mbar 0.00 mm 3.1 km/h O-NO 72 0 min 0.5 UV-I 97 W/m 10.5 C 4.8 km/h
24.09.2018 10:22 10.5 C 87 % 1029.4 mbar 0.00 mm 3.9 km/h O-NO 70 0 min 0.0 UV-I 97 W/m 10.5 C 6.4 km/h
24.09.2018 10:20 10.5 C 87 % 1029.4 mbar 0.00 mm 4.3 km/h NO 46 0 min 0.0 UV-I 91 W/m 10.5 C 8.0 km/h
24.09.2018 10:18 10.5 C 87 % 1029.3 mbar 0.00 mm 5.9 km/h NO 35 0 min 0.5 UV-I 104 W/m 10.5 C 8.0 km/h
24.09.2018 10:16 10.5 C 88 % 1029.4 mbar 0.00 mm 7.0 km/h NO 54 0 min 0.0 UV-I 88 W/m 10.1 C 11.3 km/h
24.09.2018 10:14 10.4 C 88 % 1029.4 mbar 0.00 mm 4.9 km/h O-NO 64 0 min 0.0 UV-I 81 W/m 10.4 C 11.3 km/h
24.09.2018 10:12 10.4 C 88 % 1029.4 mbar 0.00 mm 2.3 km/h NO 54 0 min 0.0 UV-I 79 W/m 10.4 C 4.8 km/h
24.09.2018 10:10 10.4 C 88 % 1029.4 mbar 0.00 mm 2.3 km/h O-NO 63 0 min 0.0 UV-I 70 W/m 10.4 C 3.2 km/h
24.09.2018 10:08 10.4 C 87 % 1029.3 mbar 0.00 mm 4.6 km/h O-NO 61 0 min 0.0 UV-I 77 W/m 10.4 C 8.0 km/h
24.09.2018 10:06 10.4 C 88 % 1029.3 mbar 0.00 mm 5.1 km/h N-NO 28 0 min 0.0 UV-I 70 W/m 10.4 C 8.0 km/h
24.09.2018 10:04 10.4 C 87 % 1029.3 mbar 0.00 mm 9.0 km/h O-NO 66 0 min 0.0 UV-I 65 W/m 8.6 C 14.5 km/h
24.09.2018 10:02 10.4 C 87 % 1029.2 mbar 0.00 mm 5.9 km/h N-NO 29 0 min 0.0 UV-I 65 W/m 10.4 C 11.3 km/h
24.09.2018 10:00 10.4 C 88 % 1029.2 mbar 0.00 mm 6.3 km/h N-NO 25 0 min 0.0 UV-I 74 W/m 10.4 C 9.7 km/h
24.09.2018 09:58 10.4 C 88 % 1029.2 mbar 0.00 mm 7.1 km/h NO 46 0 min 0.0 UV-I 67 W/m 9.9 C 12.9 km/h
24.09.2018 09:56 10.4 C 88 % 1029.2 mbar 0.00 mm 7.8 km/h NO 56 0 min 0.0 UV-I 76 W/m 9.4 C 12.9 km/h
24.09.2018 09:54 10.4 C 88 % 1029.1 mbar 0.00 mm 8.4 km/h N-NO 20 0 min 0.0 UV-I 91 W/m 9.0 C 12.9 km/h
24.09.2018 09:52 10.4 C 88 % 1029.1 mbar 0.00 mm 7.4 km/h N-NO 29 0 min 0.0 UV-I 81 W/m 9.7 C 12.9 km/h
24.09.2018 09:50 10.3 C 88 % 1029.0 mbar 0.00 mm 4.2 km/h NO 44 0 min 0.0 UV-I 90 W/m 10.3 C 6.4 km/h
24.09.2018 09:48 10.3 C 88 % 1028.9 mbar 0.00 mm 5.6 km/h O-NO 64 0 min 0.0 UV-I 86 W/m 10.3 C 8.0 km/h
24.09.2018 09:46 10.3 C 88 % 1028.9 mbar 0.00 mm 4.8 km/h O 81 0 min 0.0 UV-I 88 W/m 10.3 C 9.7 km/h
24.09.2018 09:44 10.3 C 88 % 1028.8 mbar 0.00 mm 4.5 km/h N-NO 24 0 min 0.0 UV-I 102 W/m 10.3 C 8.0 km/h
24.09.2018 09:42 10.2 C 88 % 1028.7 mbar 0.00 mm 4.1 km/h N-NO 12 0 min 0.0 UV-I 98 W/m 10.2 C 6.4 km/h
24.09.2018 09:40 10.2 C 88 % 1028.8 mbar 0.00 mm 7.3 km/h N-NO 30 0 min 0.0 UV-I 88 W/m 9.6 C 12.9 km/h
24.09.2018 09:38 10.2 C 88 % 1028.8 mbar 0.00 mm 7.4 km/h N-NO 23 0 min 0.0 UV-I 86 W/m 9.5 C 11.3 km/h
24.09.2018 09:36 10.2 C 88 % 1028.6 mbar 0.00 mm 7.0 km/h N-NW 335 0 min 0.0 UV-I 77 W/m 9.8 C 12.9 km/h
24.09.2018 09:34 10.2 C 88 % 1028.7 mbar 0.00 mm 5.9 km/h NO 49 0 min 0.0 UV-I 70 W/m 10.2 C 9.7 km/h
24.09.2018 09:32 10.2 C 88 % 1028.6 mbar 0.00 mm 9.0 km/h NO 40 0 min 0.0 UV-I 67 W/m 8.4 C 20.9 km/h
24.09.2018 09:30 10.2 C 88 % 1028.5 mbar 0.00 mm 5.7 km/h N 357 0 min 0.0 UV-I 60 W/m 10.2 C 9.7 km/h
24.09.2018 09:28 10.1 C 88 % 1028.6 mbar 0.00 mm 7.2 km/h NO 45 0 min 0.0 UV-I 54 W/m 9.5 C 11.3 km/h
24.09.2018 09:26 10.1 C 88 % 1028.5 mbar 0.00 mm 6.6 km/h SO 131 0 min 0.0 UV-I 51 W/m 10.0 C 12.9 km/h
24.09.2018 09:24 10.1 C 88 % 1028.5 mbar 0.00 mm 8.7 km/h O-NO 60 0 min 0.0 UV-I 47 W/m 8.5 C 17.7 km/h
24.09.2018 09:22 10.1 C 89 % 1028.4 mbar 0.00 mm 7.1 km/h N-NO 23 0 min 0.0 UV-I 44 W/m 9.6 C 12.9 km/h
24.09.2018 09:20 10.1 C 89 % 1028.4 mbar 0.00 mm 4.7 km/h N-NO 28 0 min 0.0 UV-I 40 W/m 10.1 C 12.9 km/h
24.09.2018 09:18 10.2 C 89 % 1028.3 mbar 0.00 mm 4.0 km/h N-NO 12 0 min 0.0 UV-I 37 W/m 10.2 C 9.7 km/h
24.09.2018 09:16 10.2 C 89 % 1028.3 mbar 0.00 mm 4.1 km/h NO 56 0 min 0.0 UV-I 33 W/m 10.2 C 9.7 km/h
24.09.2018 09:14 10.1 C 89 % 1028.3 mbar 0.00 mm 7.2 km/h N-NO 29 0 min 0.0 UV-I 32 W/m 9.5 C 16.1 km/h
24.09.2018 09:12 10.2 C 89 % 1028.2 mbar 0.00 mm 8.9 km/h N-NO 31 0 min 0.0 UV-I 30 W/m 8.5 C 14.5 km/h
24.09.2018 09:10 10.2 C 89 % 1028.2 mbar 0.00 mm 8.2 km/h N-NW 335 0 min 0.0 UV-I 30 W/m 8.9 C 14.5 km/h
24.09.2018 09:08 10.2 C 89 % 1028.0 mbar 0.00 mm 9.8 km/h NO 37 0 min 0.0 UV-I 30 W/m 7.9 C 17.7 km/h
24.09.2018 09:06 10.2 C 89 % 1028.0 mbar 0.00 mm 6.9 km/h O-NO 62 0 min 0.0 UV-I 28 W/m 9.8 C 14.5 km/h
24.09.2018 09:04 10.2 C 89 % 1028.0 mbar 0.00 mm 3.1 km/h O-NO 70 0 min 0.0 UV-I 25 W/m 10.2 C 9.7 km/h
24.09.2018 09:02 10.2 C 88 % 1028.0 mbar 0.00 mm 5.4 km/h O-NO 61 0 min 0.0 UV-I 26 W/m 10.2 C 12.9 km/h
24.09.2018 09:00 10.2 C 88 % 1027.9 mbar 0.00 mm 8.6 km/h N-NW 347 0 min 0.0 UV-I 28 W/m 8.7 C 12.9 km/h
24.09.2018 08:58 10.2 C 88 % 1027.9 mbar 0.00 mm 9.1 km/h N-NO 29 0 min 0.0 UV-I 28 W/m 8.4 C 19.3 km/h
24.09.2018 08:56 10.2 C 88 % 1027.8 mbar 0.00 mm 11.5 km/h N-NO 33 0 min 0.0 UV-I 28 W/m 7.0 C 20.9 km/h
24.09.2018 08:54 10.2 C 88 % 1027.7 mbar 0.00 mm 16.2 km/h N 4 0 min 0.0 UV-I 28 W/m 4.9 C 22.5 km/h
24.09.2018 08:52 10.2 C 88 % 1027.7 mbar 0.00 mm 10.8 km/h NO 43 0 min 0.0 UV-I 32 W/m 7.4 C 22.5 km/h
24.09.2018 08:50 10.2 C 88 % 1027.7 mbar 0.00 mm 10.2 km/h NO 35 0 min 0.0 UV-I 33 W/m 7.7 C 19.3 km/h
24.09.2018 08:48 10.2 C 88 % 1027.6 mbar 0.00 mm 11.2 km/h NO 42 0 min 0.0 UV-I 32 W/m 7.2 C 19.3 km/h
24.09.2018 08:46 10.2 C 87 % 1027.7 mbar 0.00 mm 11.6 km/h NO 45 0 min 0.0 UV-I 30 W/m 6.9 C 22.5 km/h
24.09.2018 08:44 10.2 C 87 % 1027.6 mbar 0.00 mm 10.9 km/h NO 34 0 min 0.0 UV-I 25 W/m 7.3 C 19.3 km/h
24.09.2018 08:42 10.3 C 87 % 1027.7 mbar 0.00 mm 15.9 km/h NO 43 0 min 0.0 UV-I 23 W/m 5.1 C 25.7 km/h
24.09.2018 08:40 10.3 C 88 % 1027.5 mbar 0.00 mm 10.8 km/h N 7 0 min 0.0 UV-I 21 W/m 7.5 C 25.7 km/h
24.09.2018 08:38 10.3 C 88 % 1027.5 mbar 0.00 mm 9.1 km/h O-NO 64 0 min 0.0 UV-I 19 W/m 8.5 C 20.9 km/h
24.09.2018 08:36 10.3 C 88 % 1027.3 mbar 0.00 mm 15.7 km/h N-NO 31 0 min 0.0 UV-I 19 W/m 5.2 C 27.4 km/h
24.09.2018 08:34 10.3 C 88 % 1027.3 mbar 0.00 mm 8.0 km/h N 2 0 min 0.0 UV-I 19 W/m 9.2 C 14.5 km/h
24.09.2018 08:32 10.3 C 88 % 1027.3 mbar 0.00 mm 7.9 km/h NO 40 0 min 0.0 UV-I 18 W/m 9.2 C 16.1 km/h
24.09.2018 08:30 10.4 C 88 % 1027.3 mbar 0.00 mm 8.8 km/h N 3 0 min 0.0 UV-I 16 W/m 8.8 C 16.1 km/h
24.09.2018 08:28 10.4 C 88 % 1027.3 mbar 0.00 mm 14.8 km/h N-NW 341 0 min 0.0 UV-I 16 W/m 5.7 C 20.9 km/h
24.09.2018 08:26 10.4 C 88 % 1027.3 mbar 0.00 mm 10.1 km/h N-NW 343 0 min 0.0 UV-I 16 W/m 8.0 C 24.1 km/h
24.09.2018 08:24 10.4 C 88 % 1027.2 mbar 0.00 mm 10.1 km/h N-NO 28 0 min 0.0 UV-I 16 W/m 8.0 C 20.9 km/h
24.09.2018 08:22 10.4 C 89 % 1027.1 mbar 0.00 mm 11.2 km/h NO 34 0 min 0.0 UV-I 14 W/m 7.4 C 19.3 km/h
24.09.2018 08:20 10.5 C 89 % 1027.1 mbar 0.00 mm 10.5 km/h N 355 0 min 0.0 UV-I 14 W/m 7.9 C 16.1 km/h
24.09.2018 08:18 10.5 C 89 % 1027.0 mbar 0.00 mm 11.6 km/h N-NO 13 0 min 0.0 UV-I 12 W/m 7.3 C 20.9 km/h
24.09.2018 08:16 10.5 C 89 % 1026.9 mbar 0.00 mm 11.5 km/h N-NO 26 0 min 0.0 UV-I 12 W/m 7.3 C 17.7 km/h
24.09.2018 08:14 10.6 C 89 % 1026.9 mbar 0.00 mm 12.8 km/h N 4 0 min 0.0 UV-I 14 W/m 6.8 C 20.9 km/h
24.09.2018 08:12 10.6 C 89 % 1026.9 mbar 0.00 mm 8.8 km/h N 360 0 min 0.0 UV-I 14 W/m 9.0 C 14.5 km/h
24.09.2018 08:10 10.6 C 89 % 1026.8 mbar 0.00 mm 14.6 km/h N 356 0 min 0.0 UV-I 14 W/m 6.0 C 20.9 km/h
24.09.2018 08:08 10.6 C 89 % 1026.8 mbar 0.00 mm 8.7 km/h N-NO 21 0 min 0.0 UV-I 11 W/m 9.0 C 16.1 km/h
24.09.2018 08:06 10.6 C 89 % 1026.7 mbar 0.00 mm 7.8 km/h N-NO 20 0 min 0.0 UV-I 9 W/m 9.6 C 12.9 km/h
24.09.2018 08:04 10.6 C 89 % 1026.7 mbar 0.00 mm 6.4 km/h N-NO 31 0 min 0.0 UV-I 11 W/m 10.6 C 11.3 km/h
24.09.2018 08:02 10.6 C 89 % 1026.7 mbar 0.00 mm 10.5 km/h NO 55 0 min 0.0 UV-I 9 W/m 8.0 C 20.9 km/h
24.09.2018 08:00 10.6 C 89 % 1026.7 mbar 0.00 mm 9.3 km/h NO 39 0 min 0.0 UV-I 9 W/m 8.7 C 19.3 km/h
24.09.2018 07:58 10.6 C 89 % 1026.5 mbar 0.00 mm 9.0 km/h N 4 0 min 0.0 UV-I 9 W/m 8.8 C 17.7 km/h
24.09.2018 07:56 10.6 C 89 % 1026.4 mbar 0.00 mm 7.4 km/h N 10 0 min 0.0 UV-I 7 W/m 9.9 C 11.3 km/h
24.09.2018 07:54 10.6 C 89 % 1026.4 mbar 0.00 mm 10.9 km/h N 354 0 min 0.0 UV-I 7 W/m 7.8 C 19.3 km/h
24.09.2018 07:52 10.6 C 90 % 1026.3 mbar 0.00 mm 9.4 km/h NO 43 0 min 0.0 UV-I 7 W/m 8.6 C 19.3 km/h
24.09.2018 07:50 10.6 C 90 % 1026.3 mbar 0.00 mm 7.2 km/h N 360 0 min 0.0 UV-I 5 W/m 10.0 C 12.9 km/h
24.09.2018 07:48 10.6 C 90 % 1026.2 mbar 0.00 mm 6.4 km/h N 6 0 min 0.0 UV-I 5 W/m 10.6 C 14.5 km/h
24.09.2018 07:46 10.6 C 90 % 1026.2 mbar 0.00 mm 8.4 km/h N-NO 18 0 min 0.0 UV-I 5 W/m 9.2 C 16.1 km/h
24.09.2018 07:44 10.6 C 90 % 1026.0 mbar 0.00 mm 8.9 km/h N-NW 335 0 min 0.0 UV-I 0 W/m 8.9 C 12.9 km/h
24.09.2018 07:42 10.6 C 90 % 1026.0 mbar 0.00 mm 10.7 km/h N-NO 28 0 min 0.0 UV-I 0 W/m 7.9 C 17.7 km/h
24.09.2018 07:40 10.6 C 90 % 1025.9 mbar 0.00 mm 10.5 km/h NO 35 0 min 0.0 UV-I 0 W/m 8.0 C 20.9 km/h
24.09.2018 07:38 10.6 C 91 % 1025.8 mbar 0.00 mm 7.9 km/h NO 35 0 min 0.0 UV-I 0 W/m 9.5 C 12.9 km/h
24.09.2018 07:36 10.6 C 91 % 1025.8 mbar 0.00 mm 5.6 km/h N-NO 25 0 min 0.0 UV-I 0 W/m 10.6 C 14.5 km/h
24.09.2018 07:34 10.6 C 91 % 1025.8 mbar 0.00 mm 1.3 km/h W-NW 297 0 min 0.0 UV-I 0 W/m 10.6 C 6.4 km/h
24.09.2018 07:32 10.6 C 91 % 1025.8 mbar 0.00 mm 1.9 km/h N-NW 342 0 min 0.0 UV-I 0 W/m 10.6 C 6.4 km/h
24.09.2018 07:30 10.6 C 91 % 1025.8 mbar 0.00 mm 6.0 km/h N 349 0 min 0.0 UV-I 0 W/m 10.6 C 8.0 km/h
24.09.2018 07:28 10.6 C 91 % 1025.8 mbar 0.00 mm 6.7 km/h NW 323 0 min 0.0 UV-I 0 W/m 10.4 C 11.3 km/h
24.09.2018 07:26 10.6 C 91 % 1025.8 mbar 0.00 mm 6.3 km/h N-NW 332 0 min 0.0 UV-I 0 W/m 10.6 C 14.5 km/h
24.09.2018 07:24 10.6 C 91 % 1025.7 mbar 0.00 mm 6.4 km/h N-NW 341 0 min 0.0 UV-I 0 W/m 10.6 C 14.5 km/h
24.09.2018 07:22 10.6 C 91 % 1025.6 mbar 0.00 mm 3.7 km/h N 349 0 min 0.0 UV-I 0 W/m 10.6 C 11.3 km/h
24.09.2018 07:20 10.6 C 92 % 1025.6 mbar 0.00 mm 4.2 km/h N 352 0 min 0.0 UV-I 0 W/m 10.6 C 9.7 km/h
24.09.2018 07:18 10.7 C 92 % 1025.6 mbar 0.00 mm 6.5 km/h NO 39 0 min 0.0 UV-I 0 W/m 10.7 C 11.3 km/h
24.09.2018 07:16 10.7 C 92 % 1025.6 mbar 0.00 mm 3.2 km/h N-NW 341 0 min 0.0 UV-I 0 W/m 10.7 C 6.4 km/h
24.09.2018 07:14 10.7 C 92 % 1025.5 mbar 0.00 mm 4.8 km/h N 358 0 min 0.0 UV-I 0 W/m 10.7 C 6.4 km/h
24.09.2018 07:12 10.7 C 92 % 1025.4 mbar 0.00 mm 4.8 km/h N-NW 343 0 min 0.0 UV-I 0 W/m 10.7 C 8.0 km/h
24.09.2018 07:10 10.6 C 92 % 1025.4 mbar 0.00 mm 9.2 km/h N 9 0 min 0.0 UV-I 0 W/m 8.7 C 17.7 km/h
24.09.2018 07:08 10.6 C 93 % 1025.4 mbar 0.00 mm 7.8 km/h N 8 0 min 0.0 UV-I 0 W/m 9.6 C 14.5 km/h
24.09.2018 07:06 10.7 C 93 % 1025.3 mbar 0.00 mm 8.1 km/h NO 34 0 min 0.0 UV-I 0 W/m 9.5 C 12.9 km/h
24.09.2018 07:04 10.7 C 93 % 1025.3 mbar 0.00 mm 9.2 km/h N-NO 14 0 min 0.0 UV-I 0 W/m 8.8 C 14.5 km/h
24.09.2018 07:02 10.7 C 94 % 1025.3 mbar 0.20 mm 11.1 km/h N-NO 16 0 min 0.0 UV-I 0 W/m 7.8 C 16.1 km/h
24.09.2018 07:00 10.7 C 94 % 1025.3 mbar 0.00 mm 9.3 km/h N 4 0 min 0.0 UV-I 0 W/m 8.8 C 16.1 km/h
24.09.2018 06:58 10.7 C 94 % 1025.3 mbar 0.00 mm 7.3 km/h N-NO 27 0 min 0.0 UV-I 0 W/m 10.1 C 24.1 km/h
24.09.2018 06:56 10.7 C 95 % 1025.3 mbar 0.00 mm 2.1 km/h N-NW 347 0 min 0.0 UV-I 0 W/m 10.7 C 6.4 km/h
24.09.2018 06:54 10.7 C 95 % 1025.3 mbar 0.00 mm 0.9 km/h N 360 0 min 0.0 UV-I 0 W/m 10.7 C 4.8 km/h
24.09.2018 06:52 10.7 C 95 % 1025.2 mbar 0.00 mm 2.8 km/h N 360 0 min 0.0 UV-I 0 W/m 10.7 C 6.4 km/h
24.09.2018 06:50 10.7 C 95 % 1025.2 mbar 0.00 mm 3.2 km/h NW 317 0 min 0.0 UV-I 0 W/m 10.7 C 4.8 km/h
24.09.2018 06:48 10.7 C 95 % 1025.1 mbar 0.00 mm 3.1 km/h W 260 0 min 0.0 UV-I 0 W/m 10.7 C 4.8 km/h
24.09.2018 06:46 10.7 C 95 % 1025.1 mbar 0.00 mm 2.9 km/h W 262 0 min 0.0 UV-I 0 W/m 10.7 C 4.8 km/h
24.09.2018 06:44 10.7 C 95 % 1025.0 mbar 0.00 mm 3.3 km/h W 266 0 min 0.0 UV-I 0 W/m 10.7 C 4.8 km/h
24.09.2018 06:42 10.7 C 95 % 1024.9 mbar 0.00 mm 3.0 km/h W-SW 256 0 min 0.0 UV-I 0 W/m 10.7 C 4.8 km/h
24.09.2018 06:40 10.7 C 95 % 1024.9 mbar 0.00 mm 2.5 km/h W-SW 242 0 min 0.0 UV-I 0 W/m 10.7 C 4.8 km/h
24.09.2018 06:38 10.7 C 95 % 1024.8 mbar 0.00 mm 2.5 km/h W-SW 242 0 min 0.0 UV-I 0 W/m 10.7 C 4.8 km/h
24.09.2018 06:36 10.7 C 95 % 1024.7 mbar 0.00 mm 3.2 km/h W-SW 242 0 min 0.0 UV-I 0 W/m 10.7 C 4.8 km/h
24.09.2018 06:34 10.7 C 95 % 1024.7 mbar 0.00 mm 3.8 km/h W-SW 242 0 min 0.0 UV-I 0 W/m 10.7 C 4.8 km/h
24.09.2018 06:32 10.7 C 95 % 1024.8 mbar 0.00 mm 4.4 km/h W-SW 242 0 min 0.0 UV-I 0 W/m 10.7 C 6.4 km/h
24.09.2018 06:30 10.7 C 95 % 1024.8 mbar 0.00 mm 5.5 km/h W-SW 242 0 min 0.0 UV-I 0 W/m 10.7 C 6.4 km/h
24.09.2018 06:28 10.7 C 95 % 1024.8 mbar 0.00 mm 3.5 km/h W-SW 251 0 min 0.0 UV-I 0 W/m 10.7 C 4.8 km/h
24.09.2018 06:26 10.7 C 95 % 1024.6 mbar 0.00 mm 2.5 km/h W-SW 251 0 min 0.0 UV-I 0 W/m 10.7 C 3.2 km/h
24.09.2018 06:24 10.7 C 94 % 1024.6 mbar 0.00 mm 1.7 km/h W-SW 251 0 min 0.0 UV-I 0 W/m 10.7 C 3.2 km/h
24.09.2018 06:22 10.7 C 94 % 1024.6 mbar 0.00 mm 1.6 km/h W-SW 251 0 min 0.0 UV-I 0 W/m 10.7 C 3.2 km/h
24.09.2018 06:20 10.7 C 94 % 1024.5 mbar 0.00 mm 1.4 km/h W-SW 251 0 min 0.0 UV-I 0 W/m 10.7 C 3.2 km/h
24.09.2018 06:18 10.7 C 94 % 1024.6 mbar 0.00 mm 2.7 km/h W-SW 251 0 min 0.0 UV-I 0 W/m 10.7 C 4.8 km/h
24.09.2018 06:16 10.7 C 94 % 1024.6 mbar 0.00 mm 4.5 km/h W-SW 251 0 min 0.0 UV-I 0 W/m 10.7 C 6.4 km/h
24.09.2018 06:14 10.7 C 94 % 1024.5 mbar 0.00 mm 4.7 km/h W-SW 251 0 min 0.0 UV-I 0 W/m 10.7 C 4.8 km/h
24.09.2018 06:12 10.7 C 94 % 1024.4 mbar 0.00 mm 4.5 km/h W-SW 251 0 min 0.0 UV-I 0 W/m 10.7 C 6.4 km/h
24.09.2018 06:10 10.7 C 94 % 1024.4 mbar 0.00 mm 2.7 km/h W-SW 251 0 min 0.0 UV-I 0 W/m 10.7 C 6.4 km/h
24.09.2018 06:08 10.7 C 94 % 1024.3 mbar 0.00 mm 0.7 km/h W-SW 251 0 min 0.0 UV-I 0 W/m 10.7 C 3.2 km/h
24.09.2018 06:06 10.6 C 94 % 1024.2 mbar 0.00 mm 2.9 km/h W-SW 251 0 min 0.0 UV-I 0 W/m 10.6 C 4.8 km/h
24.09.2018 06:04 10.6 C 94 % 1024.1 mbar 0.00 mm 2.1 km/h W-SW 254 0 min 0.0 UV-I 0 W/m 10.6 C 3.2 km/h
24.09.2018 06:02 10.6 C 94 % 1024.1 mbar 0.00 mm 1.1 km/h NW 326 0 min 0.0 UV-I 0 W/m 10.6 C 3.2 km/h
24.09.2018 06:00 10.6 C 94 % 1024.1 mbar 0.00 mm 0.6 km/h NW 326 0 min 0.0 UV-I 0 W/m 10.6 C 1.6 km/h
24.09.2018 05:58 10.6 C 94 % 1024.1 mbar 0.00 mm 0.8 km/h NW 326 0 min 0.0 UV-I 0 W/m 10.6 C 3.2 km/h
24.09.2018 05:56 10.6 C 94 % 1024.1 mbar 0.00 mm 2.5 km/h NW 326 0 min 0.0 UV-I 0 W/m 10.6 C 4.8 km/h
24.09.2018 05:54 10.6 C 94 % 1024.0 mbar 0.00 mm 2.7 km/h NW 316 0 min 0.0 UV-I 0 W/m 10.6 C 4.8 km/h
24.09.2018 05:52 10.6 C 94 % 1024.0 mbar 0.00 mm 1.9 km/h W 262 0 min 0.0 UV-I 0 W/m 10.6 C 3.2 km/h
24.09.2018 05:50 10.6 C 94 % 1024.1 mbar 0.00 mm 2.2 km/h W 262 0 min 0.0 UV-I 0 W/m 10.6 C 4.8 km/h
24.09.2018 05:48 10.6 C 94 % 1023.9 mbar 0.00 mm 1.2 km/h W-SW 245 0 min 0.0 UV-I 0 W/m 10.6 C 3.2 km/h
24.09.2018 05:46 10.6 C 94 % 1023.9 mbar 0.00 mm 1.8 km/h W-SW 245 0 min 0.0 UV-I 0 W/m 10.6 C 3.2 km/h
24.09.2018 05:44 10.6 C 94 % 1023.9 mbar 0.00 mm 0.3 km/h W-SW 245 0 min 0.0 UV-I 0 W/m 10.6 C 1.6 km/h
24.09.2018 05:42 10.6 C 94 % 1023.8 mbar 0.00 mm 2.3 km/h W-SW 245 0 min 0.0 UV-I 0 W/m 10.6 C 4.8 km/h
24.09.2018 05:40 10.7 C 94 % 1023.8 mbar 0.00 mm 3.4 km/h W-SW 245 0 min 0.0 UV-I 0 W/m 10.7 C 4.8 km/h
24.09.2018 05:38 10.7 C 94 % 1023.8 mbar 0.00 mm 3.2 km/h W-SW 245 0 min 0.0 UV-I 0 W/m 10.7 C 4.8 km/h
24.09.2018 05:36 10.7 C 94 % 1023.9 mbar 0.00 mm 4.4 km/h W-SW 245 0 min 0.0 UV-I 0 W/m 10.7 C 4.8 km/h
24.09.2018 05:34 10.7 C 94 % 1023.8 mbar 0.20 mm 3.0 km/h W-SW 245 0 min 0.0 UV-I 0 W/m 10.7 C 4.8 km/h
24.09.2018 05:32 10.7 C 94 % 1023.7 mbar 0.00 mm 1.9 km/h SW 229 0 min 0.0 UV-I 0 W/m 10.7 C 3.2 km/h
24.09.2018 05:30 10.7 C 94 % 1023.7 mbar 0.00 mm 1.6 km/h SW 229 0 min 0.0 UV-I 0 W/m 10.7 C 3.2 km/h
24.09.2018 05:28 10.7 C 94 % 1023.6 mbar 0.00 mm 1.4 km/h SW 229 0 min 0.0 UV-I 0 W/m 10.7 C 3.2 km/h
24.09.2018 05:26 10.7 C 94 % 1023.6 mbar 0.00 mm 1.2 km/h SW 229 0 min 0.0 UV-I 0 W/m 10.7 C 1.6 km/h
24.09.2018 05:24 10.7 C 93 % 1023.6 mbar 0.00 mm 0.0 km/h SW 229 0 min 0.0 UV-I 0 W/m 10.7 C 1.6 km/h
24.09.2018 05:22 10.7 C 93 % 1023.6 mbar 0.00 mm 0.0 km/h SW 229 0 min 0.0 UV-I 0 W/m 10.7 C 0.0 km/h
24.09.2018 05:20 10.7 C 93 % 1023.5 mbar 0.00 mm 0.0 km/h SW 229 0 min 0.0 UV-I 0 W/m 10.7 C 0.0 km/h
24.09.2018 05:18 10.7 C 93 % 1023.6 mbar 0.00 mm 0.0 km/h SW 229 0 min 0.0 UV-I 0 W/m 10.7 C 0.0 km/h
24.09.2018 05:16 10.7 C 93 % 1023.6 mbar 0.00 mm 0.0 km/h SW 229 0 min 0.0 UV-I 0 W/m 10.7 C 0.0 km/h
24.09.2018 05:14 10.7 C 93 % 1023.6 mbar 0.00 mm 0.0 km/h SW 229 0 min 0.0 UV-I 0 W/m 10.7 C 0.0 km/h
24.09.2018 05:12 10.7 C 93 % 1023.5 mbar 0.00 mm 0.3 km/h SW 229 0 min 0.0 UV-I 0 W/m 10.7 C 1.6 km/h
24.09.2018 05:10 10.7 C 93 % 1023.6 mbar 0.00 mm 0.0 km/h SW 229 0 min 0.0 UV-I 0 W/m 10.7 C 0.0 km/h
24.09.2018 05:08 10.7 C 93 % 1023.6 mbar 0.00 mm 0.0 km/h SW 229 0 min 0.0 UV-I 0 W/m 10.7 C 0.0 km/h
24.09.2018 05:06 10.7 C 93 % 1023.6 mbar 0.00 mm 0.0 km/h SW 229 0 min 0.0 UV-I 0 W/m 10.7 C 0.0 km/h
24.09.2018 05:04 10.7 C 93 % 1023.5 mbar 0.00 mm 0.5 km/h SW 229 0 min 0.0 UV-I 0 W/m 10.7 C 1.6 km/h
24.09.2018 05:02 10.7 C 93 % 1023.5 mbar 0.00 mm 1.9 km/h SW 229 0 min 0.0 UV-I 0 W/m 10.7 C 3.2 km/h
24.09.2018 05:00 10.7 C 93 % 1023.5 mbar 0.00 mm 0.6 km/h SW 229 0 min 0.0 UV-I 0 W/m 10.7 C 1.6 km/h
24.09.2018 04:58 10.7 C 93 % 1023.4 mbar 0.00 mm 1.2 km/h SW 229 0 min 0.0 UV-I 0 W/m 10.7 C 1.6 km/h
24.09.2018 04:56 10.7 C 93 % 1023.5 mbar 0.00 mm 0.5 km/h SW 229 0 min 0.0 UV-I 0 W/m 10.7 C 3.2 km/h
24.09.2018 04:54 10.7 C 93 % 1023.4 mbar 0.00 mm 0.5 km/h SW 229 0 min 0.0 UV-I 0 W/m 10.7 C 3.2 km/h
24.09.2018 04:52 10.7 C 93 % 1023.3 mbar 0.00 mm 0.0 km/h SW 229 0 min 0.0 UV-I 0 W/m 10.7 C 1.6 km/h
24.09.2018 04:50 10.7 C 93 % 1023.2 mbar 0.00 mm 2.3 km/h SW 229 0 min 0.0 UV-I 0 W/m 10.7 C 4.8 km/h
24.09.2018 04:48 10.7 C 93 % 1023.2 mbar 0.00 mm 3.1 km/h SW 229 0 min 0.0 UV-I 0 W/m 10.7 C 4.8 km/h
24.09.2018 04:46 10.7 C 93 % 1023.2 mbar 0.20 mm 2.4 km/h SW 232 0 min 0.0 UV-I 0 W/m 10.7 C 6.4 km/h
24.09.2018 04:44 10.7 C 93 % 1023.2 mbar 0.00 mm 1.8 km/h SW 235 0 min 0.0 UV-I 0 W/m 10.7 C 3.2 km/h
24.09.2018 04:42 10.7 C 93 % 1023.2 mbar 0.00 mm 0.6 km/h SW 235 0 min 0.0 UV-I 0 W/m 10.7 C 1.6 km/h
24.09.2018 04:40 10.7 C 93 % 1023.3 mbar 0.00 mm 3.9 km/h W-SW 239 0 min 0.0 UV-I 0 W/m 10.7 C 6.4 km/h
24.09.2018 04:38 10.7 C 93 % 1023.4 mbar 0.00 mm 2.0 km/h W-NW 291 0 min 0.0 UV-I 0 W/m 10.7 C 4.8 km/h
24.09.2018 04:36 10.7 C 93 % 1023.3 mbar 0.00 mm 0.0 km/h W-NW 292 0 min 0.0 UV-I 0 W/m 10.7 C 0.0 km/h
24.09.2018 04:34 10.7 C 93 % 1023.3 mbar 0.00 mm 4.0 km/h W-NW 292 0 min 0.0 UV-I 0 W/m 10.7 C 11.3 km/h
24.09.2018 04:32 10.7 C 93 % 1023.4 mbar 0.00 mm 6.3 km/h W 269 0 min 0.0 UV-I 0 W/m 10.7 C 9.7 km/h
24.09.2018 04:30 10.7 C 93 % 1023.4 mbar 0.20 mm 6.3 km/h W 259 0 min 0.0 UV-I 0 W/m 10.7 C 8.0 km/h
24.09.2018 04:28 10.8 C 93 % 1023.4 mbar 0.00 mm 5.3 km/h W-SW 254 0 min 0.0 UV-I 0 W/m 10.8 C 8.0 km/h
24.09.2018 04:26 10.8 C 93 % 1023.4 mbar 0.00 mm 5.1 km/h W-SW 243 0 min 0.0 UV-I 0 W/m 10.8 C 6.4 km/h
24.09.2018 04:24 10.8 C 93 % 1023.4 mbar 0.00 mm 4.8 km/h W-SW 241 0 min 0.0 UV-I 0 W/m 10.8 C 6.4 km/h
24.09.2018 04:22 10.8 C 93 % 1023.4 mbar 0.00 mm 5.8 km/h W-SW 241 0 min 0.0 UV-I 0 W/m 10.8 C 8.0 km/h
24.09.2018 04:20 10.8 C 93 % 1023.4 mbar 0.20 mm 4.7 km/h SW 235 0 min 0.0 UV-I 0 W/m 10.8 C 6.4 km/h
24.09.2018 04:18 10.8 C 93 % 1023.3 mbar 0.00 mm 5.7 km/h SW 234 0 min 0.0 UV-I 0 W/m 10.8 C 9.7 km/h
24.09.2018 04:16 10.8 C 93 % 1023.3 mbar 0.00 mm 3.7 km/h W 272 0 min 0.0 UV-I 0 W/m 10.8 C 6.4 km/h
24.09.2018 04:14 10.8 C 93 % 1023.3 mbar 0.20 mm 7.1 km/h W-NW 286 0 min 0.0 UV-I 0 W/m 10.3 C 11.3 km/h
24.09.2018 04:12 10.8 C 93 % 1023.3 mbar 0.00 mm 5.9 km/h W-SW 242 0 min 0.0 UV-I 0 W/m 10.8 C 8.0 km/h
24.09.2018 04:10 10.8 C 93 % 1023.3 mbar 0.00 mm 6.4 km/h W 266 0 min 0.0 UV-I 0 W/m 10.8 C 8.0 km/h
24.09.2018 04:08 10.9 C 93 % 1023.4 mbar 0.00 mm 6.5 km/h W-SW 247 0 min 0.0 UV-I 0 W/m 10.9 C 8.0 km/h
24.09.2018 04:06 10.9 C 92 % 1023.3 mbar 0.20 mm 6.3 km/h W 262 0 min 0.0 UV-I 0 W/m 10.9 C 12.9 km/h
24.09.2018 04:04 10.9 C 92 % 1023.3 mbar 0.00 mm 6.1 km/h W-SW 257 0 min 0.0 UV-I 0 W/m 10.9 C 8.0 km/h
24.09.2018 04:02 11.0 C 92 % 1023.3 mbar 0.00 mm 4.0 km/h W 272 0 min 0.0 UV-I 0 W/m 11.0 C 4.8 km/h
24.09.2018 04:00 11.0 C 92 % 1023.4 mbar 0.00 mm 3.0 km/h W-SW 245 0 min 0.0 UV-I 0 W/m 11.0 C 6.4 km/h
24.09.2018 03:58 11.0 C 92 % 1023.3 mbar 0.00 mm 1.0 km/h W-SW 245 0 min 0.0 UV-I 0 W/m 11.0 C 3.2 km/h
24.09.2018 03:56 11.1 C 92 % 1023.3 mbar 0.00 mm 1.1 km/h W-SW 245 0 min 0.0 UV-I 0 W/m 11.1 C 1.6 km/h
24.09.2018 03:54 11.1 C 92 % 1023.4 mbar 0.00 mm 3.8 km/h W-SW 245 0 min 0.0 UV-I 0 W/m 11.1 C 6.4 km/h
24.09.2018 03:52 11.1 C 92 % 1023.4 mbar 0.00 mm 2.8 km/h NW 304 0 min 0.0 UV-I 0 W/m 11.1 C 4.8 km/h
24.09.2018 03:50 11.1 C 92 % 1023.4 mbar 0.20 mm 3.2 km/h NW 307 0 min 0.0 UV-I 0 W/m 11.1 C 4.8 km/h
24.09.2018 03:48 11.2 C 92 % 1023.4 mbar 0.00 mm 0.4 km/h NW 309 0 min 0.0 UV-I 0 W/m 11.2 C 3.2 km/h
24.09.2018 03:46 11.2 C 92 % 1023.4 mbar 0.00 mm 3.1 km/h N-NW 343 0 min 0.0 UV-I 0 W/m 11.2 C 6.4 km/h
24.09.2018 03:44 11.2 C 92 % 1023.4 mbar 0.20 mm 3.5 km/h N-NW 328 0 min 0.0 UV-I 0 W/m 11.2 C 8.0 km/h
24.09.2018 03:42 11.2 C 92 % 1023.3 mbar 0.00 mm 2.8 km/h N-NW 343 0 min 0.0 UV-I 0 W/m 11.2 C 6.4 km/h
24.09.2018 03:40 11.2 C 92 % 1023.4 mbar 0.20 mm 3.2 km/h N-NW 343 0 min 0.0 UV-I 0 W/m 11.2 C 6.4 km/h
24.09.2018 03:38 11.2 C 92 % 1023.4 mbar 0.00 mm 1.9 km/h N 351 0 min 0.0 UV-I 0 W/m 11.2 C 6.4 km/h
24.09.2018 03:36 11.3 C 92 % 1023.4 mbar 0.00 mm 4.4 km/h N-NW 330 0 min 0.0 UV-I 0 W/m 11.3 C 8.0 km/h
24.09.2018 03:34 11.3 C 92 % 1023.5 mbar 0.20 mm 5.3 km/h NW 316 0 min 0.0 UV-I 0 W/m 11.3 C 9.7 km/h
24.09.2018 03:32 11.3 C 92 % 1023.4 mbar 0.00 mm 1.4 km/h N-NO 17 0 min 0.0 UV-I 0 W/m 11.3 C 3.2 km/h
24.09.2018 03:30 11.3 C 91 % 1023.2 mbar 0.20 mm 0.0 km/h O 88 0 min 0.0 UV-I 0 W/m 11.3 C 0.0 km/h
24.09.2018 03:28 11.3 C 91 % 1023.2 mbar 0.00 mm 0.2 km/h O 88 0 min 0.0 UV-I 0 W/m 11.3 C 1.6 km/h
24.09.2018 03:26 11.3 C 91 % 1023.2 mbar 0.00 mm 3.0 km/h O 88 0 min 0.0 UV-I 0 W/m 11.3 C 4.8 km/h
24.09.2018 03:24 11.3 C 91 % 1023.2 mbar 0.00 mm 4.5 km/h O-NO 70 0 min 0.0 UV-I 0 W/m 11.3 C 6.4 km/h
24.09.2018 03:22 11.4 C 92 % 1023.2 mbar 0.00 mm 4.3 km/h O 99 0 min 0.0 UV-I 0 W/m 11.4 C 9.7 km/h
24.09.2018 03:20 11.4 C 92 % 1023.2 mbar 0.00 mm 2.9 km/h O 97 0 min 0.0 UV-I 0 W/m 11.4 C 4.8 km/h
24.09.2018 03:18 11.4 C 92 % 1023.1 mbar 0.20 mm 4.5 km/h O-NO 74 0 min 0.0 UV-I 0 W/m 11.4 C 8.0 km/h
24.09.2018 03:16 11.4 C 92 % 1023.1 mbar 0.00 mm 3.0 km/h S 185 0 min 0.0 UV-I 0 W/m 11.4 C 4.8 km/h
24.09.2018 03:14 11.4 C 92 % 1023.1 mbar 0.00 mm 3.7 km/h S 185 0 min 0.0 UV-I 0 W/m 11.4 C 6.4 km/h
24.09.2018 03:12 11.4 C 93 % 1023.1 mbar 0.00 mm 0.9 km/h NW 306 0 min 0.0 UV-I 0 W/m 11.4 C 3.2 km/h
24.09.2018 03:10 11.4 C 93 % 1023.0 mbar 0.00 mm 1.4 km/h N 4 0 min 0.0 UV-I 0 W/m 11.4 C 3.2 km/h
24.09.2018 03:08 11.4 C 92 % 1022.8 mbar 0.00 mm 3.7 km/h N 7 0 min 0.0 UV-I 0 W/m 11.4 C 8.0 km/h
24.09.2018 03:06 11.4 C 92 % 1022.7 mbar 0.00 mm 3.1 km/h N-NO 25 0 min 0.0 UV-I 0 W/m 11.4 C 6.4 km/h
24.09.2018 03:04 11.5 C 93 % 1022.7 mbar 0.00 mm 2.2 km/h N 10 0 min 0.0 UV-I 0 W/m 11.5 C 8.0 km/h
24.09.2018 03:02 11.5 C 93 % 1022.6 mbar 0.00 mm 2.4 km/h N-NO 31 0 min 0.0 UV-I 0 W/m 11.5 C 6.4 km/h
24.09.2018 03:00 11.4 C 93 % 1022.6 mbar 0.00 mm 5.4 km/h N-NO 30 0 min 0.0 UV-I 0 W/m 11.4 C 9.7 km/h
24.09.2018 02:58 11.5 C 93 % 1022.5 mbar 0.00 mm 6.1 km/h N-NO 29 0 min 0.0 UV-I 0 W/m 11.5 C 9.7 km/h
24.09.2018 02:56 11.5 C 93 % 1022.4 mbar 0.20 mm 7.7 km/h N 350 0 min 0.0 UV-I 0 W/m 10.6 C 16.1 km/h
24.09.2018 02:54 11.5 C 92 % 1022.1 mbar 0.00 mm 7.8 km/h N-NO 21 0 min 0.0 UV-I 0 W/m 10.6 C 14.5 km/h
24.09.2018 02:52 11.5 C 92 % 1022.1 mbar 0.00 mm 6.7 km/h N-NO 30 0 min 0.0 UV-I 0 W/m 11.3 C 14.5 km/h
24.09.2018 02:50 11.6 C 92 % 1022.1 mbar 0.00 mm 8.9 km/h NW 324 0 min 0.0 UV-I 0 W/m 10.0 C 16.1 km/h
24.09.2018 02:48 11.6 C 92 % 1022.2 mbar 0.00 mm 7.5 km/h N-NO 20 0 min 0.0 UV-I 0 W/m 10.9 C 12.9 km/h
24.09.2018 02:46 11.6 C 92 % 1022.3 mbar 0.00 mm 6.5 km/h N-NW 347 0 min 0.0 UV-I 0 W/m 11.6 C 11.3 km/h
24.09.2018 02:44 11.7 C 92 % 1022.4 mbar 0.00 mm 7.0 km/h NO 39 0 min 0.0 UV-I 0 W/m 11.3 C 12.9 km/h
24.09.2018 02:42 11.7 C 92 % 1022.4 mbar 0.20 mm 10.2 km/h N 360 0 min 0.0 UV-I 0 W/m 9.4 C 17.7 km/h
24.09.2018 02:40 11.8 C 92 % 1022.2 mbar 0.00 mm 13.5 km/h N-NO 22 0 min 0.0 UV-I 0 W/m 7.9 C 19.3 km/h
24.09.2018 02:38 11.8 C 92 % 1022.2 mbar 0.00 mm 10.9 km/h NO 41 0 min 0.0 UV-I 0 W/m 9.1 C 19.3 km/h
24.09.2018 02:36 11.8 C 92 % 1022.4 mbar 0.20 mm 12.7 km/h NO 43 0 min 0.0 UV-I 0 W/m 8.3 C 19.3 km/h
24.09.2018 02:34 11.9 C 92 % 1022.5 mbar 0.00 mm 10.4 km/h N-NO 16 0 min 0.0 UV-I 0 W/m 9.5 C 17.7 km/h
24.09.2018 02:32 12.0 C 92 % 1022.5 mbar 0.00 mm 13.7 km/h N 1 0 min 0.0 UV-I 0 W/m 8.1 C 20.9 km/h
24.09.2018 02:30 12.1 C 92 % 1022.4 mbar 0.00 mm 8.6 km/h N-NO 16 0 min 0.0 UV-I 0 W/m 10.7 C 16.1 km/h
24.09.2018 02:28 12.1 C 92 % 1022.4 mbar 0.20 mm 11.8 km/h N 7 0 min 0.0 UV-I 0 W/m 9.0 C 20.9 km/h
24.09.2018 02:26 12.2 C 92 % 1022.4 mbar 0.00 mm 7.8 km/h O-NO 76 0 min 0.0 UV-I 0 W/m 11.3 C 11.3 km/h
24.09.2018 02:24 12.3 C 92 % 1022.5 mbar 0.00 mm 7.5 km/h N 6 0 min 0.0 UV-I 0 W/m 11.6 C 12.9 km/h
24.09.2018 02:22 12.4 C 92 % 1022.5 mbar 0.00 mm 10.4 km/h N 355 0 min 0.0 UV-I 0 W/m 10.0 C 16.1 km/h
24.09.2018 02:20 12.5 C 92 % 1022.4 mbar 0.20 mm 10.7 km/h N-NO 12 0 min 0.0 UV-I 0 W/m 10.0 C 19.3 km/h
24.09.2018 02:18 12.7 C 92 % 1022.4 mbar 0.00 mm 9.5 km/h N 1 0 min 0.0 UV-I 0 W/m 10.8 C 16.1 km/h
24.09.2018 02:16 12.8 C 93 % 1022.4 mbar 0.00 mm 9.0 km/h NO 35 0 min 0.0 UV-I 0 W/m 11.2 C 16.1 km/h
24.09.2018 02:14 12.9 C 94 % 1022.4 mbar 0.00 mm 2.1 km/h N-NW 335 0 min 0.0 UV-I 0 W/m 12.9 C 4.8 km/h
24.09.2018 02:12 12.9 C 93 % 1022.1 mbar 0.20 mm 0.0 km/h N-NW 335 0 min 0.0 UV-I 0 W/m 12.9 C 1.6 km/h
24.09.2018 02:10 12.9 C 93 % 1022.2 mbar 0.00 mm 0.2 km/h N-NW 335 0 min 0.0 UV-I 0 W/m 12.9 C 1.6 km/h
24.09.2018 02:08 13.0 C 93 % 1022.2 mbar 0.00 mm 0.8 km/h N-NW 335 0 min 0.0 UV-I 0 W/m 13.0 C 1.6 km/h
24.09.2018 02:06 13.0 C 93 % 1022.0 mbar 0.00 mm 0.8 km/h N-NW 335 0 min 0.0 UV-I 0 W/m 13.0 C 3.2 km/h
24.09.2018 02:04 13.0 C 93 % 1022.0 mbar 0.00 mm 1.1 km/h N-NW 335 0 min 0.0 UV-I 0 W/m 13.0 C 1.6 km/h
24.09.2018 02:02 13.1 C 93 % 1022.0 mbar 0.20 mm 1.2 km/h N-NW 335 0 min 0.0 UV-I 0 W/m 13.1 C 3.2 km/h
24.09.2018 02:00 13.1 C 93 % 1021.9 mbar 0.00 mm 0.7 km/h N-NW 335 0 min 0.0 UV-I 0 W/m 13.1 C 3.2 km/h
24.09.2018 01:58 13.1 C 93 % 1021.8 mbar 0.00 mm 0.0 km/h N-NW 335 0 min 0.0 UV-I 0 W/m 13.1 C 0.0 km/h
24.09.2018 01:56 13.1 C 93 % 1021.6 mbar 0.00 mm 0.1 km/h N-NW 335 0 min 0.0 UV-I 0 W/m 13.1 C 1.6 km/h
24.09.2018 01:54 13.1 C 93 % 1021.6 mbar 0.00 mm 0.5 km/h N-NW 335 0 min 0.0 UV-I 0 W/m 13.1 C 1.6 km/h
24.09.2018 01:52 13.1 C 93 % 1021.7 mbar 0.00 mm 0.0 km/h N-NW 335 0 min 0.0 UV-I 0 W/m 13.1 C 0.0 km/h
24.09.2018 01:50 13.1 C 93 % 1021.8 mbar 0.00 mm 0.0 km/h N-NW 335 0 min 0.0 UV-I 0 W/m 13.1 C 0.0 km/h
24.09.2018 01:48 13.1 C 93 % 1021.8 mbar 0.00 mm 0.2 km/h N-NW 335 0 min 0.0 UV-I 0 W/m 13.1 C 1.6 km/h
24.09.2018 01:46 13.2 C 93 % 1021.8 mbar 0.00 mm 2.6 km/h N-NW 335 0 min 0.0 UV-I 0 W/m 13.2 C 4.8 km/h
24.09.2018 01:44 13.2 C 93 % 1021.7 mbar 0.20 mm 3.8 km/h N-NW 335 0 min 0.0 UV-I 0 W/m 13.2 C 6.4 km/h
24.09.2018 01:42 13.2 C 93 % 1021.7 mbar 0.00 mm 1.4 km/h N 360 0 min 0.0 UV-I 0 W/m 13.2 C 4.8 km/h
24.09.2018 01:40 13.3 C 93 % 1021.8 mbar 0.20 mm 2.0 km/h N 360 0 min 0.0 UV-I 0 W/m 13.3 C 4.8 km/h
24.09.2018 01:38 13.3 C 93 % 1021.8 mbar 0.00 mm 0.0 km/h N 1 0 min 0.0 UV-I 0 W/m 13.3 C 0.0 km/h
24.09.2018 01:36 13.3 C 93 % 1021.8 mbar 0.20 mm 0.0 km/h N 1 0 min 0.0 UV-I 0 W/m 13.3 C 0.0 km/h
24.09.2018 01:34 13.3 C 93 % 1021.8 mbar 0.00 mm 0.0 km/h N 1 0 min 0.0 UV-I 0 W/m 13.3 C 0.0 km/h
24.09.2018 01:32 13.4 C 93 % 1021.6 mbar 0.00 mm 0.0 km/h N 1 0 min 0.0 UV-I 0 W/m 13.4 C 0.0 km/h
24.09.2018 01:30 13.4 C 93 % 1021.5 mbar 0.20 mm 0.0 km/h N 1 0 min 0.0 UV-I 0 W/m 13.4 C 0.0 km/h
24.09.2018 01:28 13.5 C 93 % 1021.5 mbar 0.00 mm 0.0 km/h N 1 0 min 0.0 UV-I 0 W/m 13.5 C 0.0 km/h
24.09.2018 01:26 13.5 C 93 % 1021.5 mbar 0.00 mm 0.2 km/h N 1 0 min 0.0 UV-I 0 W/m 13.5 C 1.6 km/h
24.09.2018 01:24 13.5 C 93 % 1021.5 mbar 0.00 mm 0.6 km/h N 1 0 min 0.0 UV-I 0 W/m 13.5 C 3.2 km/h
24.09.2018 01:22 13.5 C 93 % 1021.4 mbar 0.20 mm 1.4 km/h N 2 0 min 0.0 UV-I 0 W/m 13.5 C 4.8 km/h
24.09.2018 01:20 13.6 C 92 % 1021.3 mbar 0.00 mm 3.7 km/h N 2 0 min 0.0 UV-I 0 W/m 13.6 C 6.4 km/h
24.09.2018 01:18 13.6 C 92 % 1021.3 mbar 0.20 mm 0.2 km/h N-NW 340 0 min 0.0 UV-I 0 W/m 13.6 C 1.6 km/h
24.09.2018 01:16 13.6 C 92 % 1021.3 mbar 0.00 mm 0.1 km/h N-NW 340 0 min 0.0 UV-I 0 W/m 13.6 C 1.6 km/h
24.09.2018 01:14 13.7 C 92 % 1021.2 mbar 0.20 mm 0.2 km/h N-NW 340 0 min 0.0 UV-I 0 W/m 13.7 C 1.6 km/h
24.09.2018 01:12 13.7 C 92 % 1021.0 mbar 0.20 mm 2.3 km/h N-NW 340 0 min 0.0 UV-I 0 W/m 13.7 C 6.4 km/h
24.09.2018 01:10 13.7 C 92 % 1021.0 mbar 0.00 mm 1.5 km/h N-NW 340 0 min 0.0 UV-I 0 W/m 13.7 C 3.2 km/h
24.09.2018 01:08 13.8 C 92 % 1021.1 mbar 0.20 mm 0.0 km/h N-NW 340 0 min 0.0 UV-I 0 W/m 13.8 C 0.0 km/h
24.09.2018 01:06 13.8 C 92 % 1021.0 mbar 0.00 mm 0.5 km/h N-NW 340 0 min 0.0 UV-I 0 W/m 13.8 C 3.2 km/h
24.09.2018 01:04 13.9 C 92 % 1021.0 mbar 0.20 mm 1.1 km/h N-NW 340 0 min 0.0 UV-I 0 W/m 13.9 C 6.4 km/h
24.09.2018 01:02 13.9 C 92 % 1021.1 mbar 0.00 mm 0.9 km/h N-NW 340 0 min 0.0 UV-I 0 W/m 13.9 C 3.2 km/h
24.09.2018 01:00 14.0 C 92 % 1020.9 mbar 0.20 mm 0.0 km/h N-NW 340 0 min 0.0 UV-I 0 W/m 14.0 C 0.0 km/h
24.09.2018 00:58 14.0 C 92 % 1020.8 mbar 0.00 mm 0.0 km/h N-NW 340 0 min 0.0 UV-I 0 W/m 14.0 C 1.6 km/h
24.09.2018 00:56 14.0 C 92 % 1020.7 mbar 0.00 mm 0.7 km/h N-NW 340 0 min 0.0 UV-I 0 W/m 14.0 C 1.6 km/h
24.09.2018 00:54 13.9 C 92 % 1020.8 mbar 0.00 mm 0.0 km/h N-NW 340 0 min 0.0 UV-I 0 W/m 13.9 C 1.6 km/h
24.09.2018 00:52 13.9 C 91 % 1020.8 mbar 0.00 mm 1.0 km/h N-NW 340 0 min 0.0 UV-I 0 W/m 13.9 C 3.2 km/h
24.09.2018 00:50 13.9 C 91 % 1020.6 mbar 0.00 mm 0.1 km/h N-NW 340 0 min 0.0 UV-I 0 W/m 13.9 C 1.6 km/h
24.09.2018 00:48 14.0 C 91 % 1020.4 mbar 0.20 mm 3.4 km/h N-NW 340 0 min 0.0 UV-I 0 W/m 14.0 C 6.4 km/h
24.09.2018 00:46 14.1 C 91 % 1020.3 mbar 0.00 mm 6.7 km/h N-NW 332 0 min 0.0 UV-I 0 W/m 13.9 C 8.0 km/h
24.09.2018 00:44 14.1 C 91 % 1020.1 mbar 0.00 mm 6.5 km/h N-NW 341 0 min 0.0 UV-I 0 W/m 14.1 C 8.0 km/h
24.09.2018 00:42 14.2 C 91 % 1020.2 mbar 0.00 mm 2.7 km/h N-NW 335 0 min 0.0 UV-I 0 W/m 14.2 C 6.4 km/h
24.09.2018 00:40 14.2 C 91 % 1020.2 mbar 0.00 mm 1.8 km/h W 280 0 min 0.0 UV-I 0 W/m 14.2 C 3.2 km/h
24.09.2018 00:38 14.2 C 90 % 1020.3 mbar 0.00 mm 0.9 km/h W 269 0 min 0.0 UV-I 0 W/m 14.2 C 3.2 km/h
24.09.2018 00:36 14.2 C 90 % 1020.4 mbar 0.00 mm 3.2 km/h W 269 0 min 0.0 UV-I 0 W/m 14.2 C 4.8 km/h
24.09.2018 00:34 14.2 C 90 % 1020.4 mbar 0.00 mm 3.7 km/h W 269 0 min 0.0 UV-I 0 W/m 14.2 C 6.4 km/h
24.09.2018 00:32 14.3 C 90 % 1020.5 mbar 0.00 mm 3.0 km/h W-SW 237 0 min 0.0 UV-I 0 W/m 14.3 C 6.4 km/h
24.09.2018 00:30 14.3 C 90 % 1020.4 mbar 0.00 mm 2.6 km/h SW 222 0 min 0.0 UV-I 0 W/m 14.3 C 4.8 km/h
24.09.2018 00:28 14.2 C 90 % 1020.5 mbar 0.00 mm 0.3 km/h O-NO 74 0 min 0.0 UV-I 0 W/m 14.2 C 3.2 km/h
24.09.2018 00:26 14.2 C 89 % 1020.5 mbar 0.00 mm 3.7 km/h O-NO 74 0 min 0.0 UV-I 0 W/m 14.2 C 6.4 km/h
24.09.2018 00:24 14.2 C 89 % 1020.5 mbar 0.00 mm 9.1 km/h O-NO 70 0 min 0.0 UV-I 0 W/m 12.7 C 12.9 km/h
24.09.2018 00:22 14.3 C 89 % 1020.4 mbar 0.00 mm 6.5 km/h N 1 0 min 0.0 UV-I 0 W/m 14.3 C 14.5 km/h
24.09.2018 00:20 14.3 C 89 % 1020.4 mbar 0.00 mm 5.5 km/h N-NW 341 0 min 0.0 UV-I 0 W/m 14.3 C 12.9 km/h
24.09.2018 00:18 14.3 C 89 % 1020.4 mbar 0.00 mm 6.1 km/h NW 326 0 min 0.0 UV-I 0 W/m 14.3 C 9.7 km/h
24.09.2018 00:16 14.4 C 89 % 1020.4 mbar 0.00 mm 8.0 km/h N 2 0 min 0.0 UV-I 0 W/m 13.5 C 14.5 km/h
24.09.2018 00:14 14.5 C 89 % 1020.2 mbar 0.00 mm 4.3 km/h W 268 0 min 0.0 UV-I 0 W/m 14.5 C 6.4 km/h
24.09.2018 00:12 14.6 C 89 % 1020.3 mbar 0.00 mm 6.4 km/h W-NW 289 0 min 0.0 UV-I 0 W/m 14.6 C 11.3 km/h
24.09.2018 00:10 14.6 C 89 % 1020.1 mbar 0.20 mm 8.6 km/h W-SW 254 0 min 0.0 UV-I 0 W/m 13.4 C 12.9 km/h
24.09.2018 00:08 14.7 C 90 % 1019.9 mbar 0.20 mm 6.4 km/h W-SW 245 0 min 0.0 UV-I 0 W/m 14.7 C 11.3 km/h
24.09.2018 00:06 14.7 C 90 % 1019.8 mbar 0.00 mm 3.2 km/h W-SW 254 0 min 0.0 UV-I 0 W/m 14.7 C 8.0 km/h
24.09.2018 00:04 14.8 C 90 % 1020.2 mbar 0.20 mm 2.7 km/h W-NW 303 0 min 0.0 UV-I 0 W/m 14.8 C 4.8 km/h
24.09.2018 00:02 14.8 C 90 % 1020.5 mbar 0.00 mm 4.3 km/h S 185 0 min 0.0 UV-I 0 W/m 14.8 C 6.4 km/h
24.09.2018 00:00 14.8 C 89 % 1020.6 mbar 0.20 mm 5.0 km/h SO 126 0 min 0.0 UV-I 0 W/m 14.8 C 12.9 km/h
23.09.2018 23:58 14.9 C 89 % 1020.6 mbar 0.20 mm 5.6 km/h O-SO 114 0 min 0.0 UV-I 0 W/m 14.9 C 8.0 km/h
23.09.2018 23:56 14.9 C 88 % 1020.5 mbar 0.00 mm 4.3 km/h NO 34 0 min 0.0 UV-I 0 W/m 14.9 C 6.4 km/h
23.09.2018 23:54 14.9 C 87 % 1020.4 mbar 0.40 mm 4.8 km/h O-NO 77 0 min 0.0 UV-I 0 W/m 14.9 C 11.3 km/h
23.09.2018 23:52 15.0 C 87 % 1020.1 mbar 0.20 mm 6.5 km/h SW 234 0 min 0.0 UV-I 0 W/m 15.0 C 9.7 km/h
23.09.2018 23:50 15.1 C 87 % 1019.9 mbar 0.20 mm 5.3 km/h W 278 0 min 0.0 UV-I 0 W/m 15.1 C 9.7 km/h
23.09.2018 23:48 15.1 C 87 % 1019.8 mbar 0.20 mm 5.7 km/h W 267 0 min 0.0 UV-I 0 W/m 15.1 C 9.7 km/h
23.09.2018 23:46 15.2 C 87 % 1019.7 mbar 0.20 mm 6.8 km/h N-NW 328 0 min 0.0 UV-I 0 W/m 15.0 C 12.9 km/h
23.09.2018 23:44 15.3 C 87 % 1019.4 mbar 0.00 mm 8.5 km/h N-NW 337 0 min 0.0 UV-I 0 W/m 14.2 C 12.9 km/h
23.09.2018 23:42 15.4 C 85 % 1019.1 mbar 0.20 mm 8.0 km/h N-NW 347 0 min 0.0 UV-I 0 W/m 14.5 C 12.9 km/h
23.09.2018 23:40 15.5 C 84 % 1018.8 mbar 0.00 mm 11.5 km/h N 3 0 min 0.0 UV-I 0 W/m 13.0 C 20.9 km/h
23.09.2018 23:38 15.6 C 83 % 1018.8 mbar 0.20 mm 16.6 km/h W-NW 283 0 min 0.0 UV-I 0 W/m 11.4 C 24.1 km/h
23.09.2018 23:36 15.7 C 82 % 1018.8 mbar 0.00 mm 18.8 km/h NW 304 0 min 0.0 UV-I 0 W/m 11.0 C 29.0 km/h
23.09.2018 23:34 15.7 C 83 % 1018.7 mbar 0.20 mm 18.1 km/h W-NW 299 0 min 0.0 UV-I 0 W/m 11.1 C 25.7 km/h
23.09.2018 23:32 15.8 C 83 % 1018.6 mbar 0.00 mm 13.6 km/h W 272 0 min 0.0 UV-I 0 W/m 12.6 C 19.3 km/h
23.09.2018 23:30 16.0 C 82 % 1018.5 mbar 0.20 mm 10.0 km/h W-SW 256 0 min 0.0 UV-I 0 W/m 14.2 C 16.1 km/h
23.09.2018 23:28 16.1 C 82 % 1018.4 mbar 0.00 mm 9.0 km/h W-NW 299 0 min 0.0 UV-I 0 W/m 14.8 C 12.9 km/h
23.09.2018 23:26 16.2 C 80 % 1018.0 mbar 0.20 mm 13.1 km/h NW 314 0 min 0.0 UV-I 0 W/m 13.3 C 17.7 km/h
23.09.2018 23:24 16.3 C 79 % 1017.9 mbar 0.00 mm 13.9 km/h W-NW 290 0 min 0.0 UV-I 0 W/m 13.1 C 20.9 km/h
23.09.2018 23:22 16.4 C 79 % 1017.6 mbar 0.00 mm 11.0 km/h W 266 0 min 0.0 UV-I 0 W/m 14.3 C 25.7 km/h
23.09.2018 23:20 16.6 C 79 % 1017.4 mbar 0.20 mm 9.7 km/h N-NW 345 0 min 0.0 UV-I 0 W/m 15.0 C 19.3 km/h
23.09.2018 23:18 16.8 C 81 % 1017.2 mbar 0.00 mm 7.0 km/h N-NW 335 0 min 0.0 UV-I 0 W/m 16.5 C 12.9 km/h
23.09.2018 23:16 16.9 C 80 % 1017.1 mbar 0.20 mm 1.5 km/h O 87 0 min 0.0 UV-I 0 W/m 16.9 C 3.2 km/h
23.09.2018 23:14 17.1 C 79 % 1017.0 mbar 0.00 mm 0.3 km/h SO 133 0 min 0.0 UV-I 0 W/m 17.1 C 1.6 km/h
23.09.2018 23:12 17.2 C 78 % 1017.0 mbar 0.20 mm 3.0 km/h SO 133 0 min 0.0 UV-I 0 W/m 17.2 C 4.8 km/h
23.09.2018 23:10 17.2 C 78 % 1017.0 mbar 0.00 mm 4.8 km/h S-SO 158 0 min 0.0 UV-I 0 W/m 17.2 C 8.0 km/h
23.09.2018 23:08 17.3 C 75 % 1016.8 mbar 0.00 mm 4.8 km/h NO 40 0 min 0.0 UV-I 0 W/m 17.3 C 6.4 km/h
23.09.2018 23:06 17.4 C 75 % 1016.8 mbar 0.20 mm 7.0 km/h NO 44 0 min 0.0 UV-I 0 W/m 17.1 C 11.3 km/h
23.09.2018 23:04 17.6 C 75 % 1016.6 mbar 0.00 mm 3.7 km/h S-SW 210 0 min 0.0 UV-I 0 W/m 17.6 C 9.7 km/h
23.09.2018 23:02 17.7 C 73 % 1016.6 mbar 0.20 mm 6.6 km/h S-SW 211 0 min 0.0 UV-I 0 W/m 17.6 C 11.3 km/h
23.09.2018 23:00 17.8 C 73 % 1016.6 mbar 0.20 mm 16.0 km/h W-SW 242 0 min 0.0 UV-I 0 W/m 14.3 C 25.7 km/h
23.09.2018 22:58 18.1 C 72 % 1016.3 mbar 0.00 mm 18.1 km/h NW 315 0 min 0.0 UV-I 0 W/m 14.2 C 30.6 km/h
23.09.2018 22:56 18.4 C 71 % 1015.8 mbar 0.00 mm 17.9 km/h W 277 0 min 0.0 UV-I 0 W/m 14.6 C 25.7 km/h
23.09.2018 22:54 18.9 C 69 % 1015.2 mbar 0.20 mm 19.9 km/h W-SW 247 0 min 0.0 UV-I 0 W/m 14.8 C 33.8 km/h
23.09.2018 22:52 19.7 C 68 % 1014.7 mbar 0.20 mm 23.0 km/h W 275 0 min 0.0 UV-I 0 W/m 15.3 C 40.2 km/h
23.09.2018 22:50 20.6 C 66 % 1014.2 mbar 0.20 mm 23.7 km/h W-NW 294 0 min 0.0 UV-I 0 W/m 16.4 C 38.6 km/h
23.09.2018 22:48 21.7 C 61 % 1013.8 mbar 0.00 mm 31.4 km/h NW 308 0 min 0.0 UV-I 0 W/m 17.0 C 51.5 km/h
23.09.2018 22:46 22.8 C 59 % 1013.4 mbar 0.00 mm 21.8 km/h NW 320 0 min 0.0 UV-I 0 W/m 19.6 C 35.4 km/h
23.09.2018 22:44 23.3 C 63 % 1013.0 mbar 0.00 mm 15.5 km/h W-NW 297 0 min 0.0 UV-I 0 W/m 21.2 C 32.2 km/h
23.09.2018 22:42 23.5 C 62 % 1012.5 mbar 0.00 mm 13.2 km/h W 272 0 min 0.0 UV-I 0 W/m 21.8 C 20.9 km/h
23.09.2018 22:40 23.5 C 60 % 1012.3 mbar 0.00 mm 19.2 km/h SW 216 0 min 0.0 UV-I 0 W/m 20.8 C 33.8 km/h
23.09.2018 22:38 23.4 C 60 % 1012.0 mbar 0.00 mm 20.7 km/h S-SO 151 0 min 0.0 UV-I 0 W/m 20.5 C 30.6 km/h
23.09.2018 22:36 23.4 C 60 % 1012.2 mbar 0.00 mm 16.1 km/h SW 218 0 min 0.0 UV-I 0 W/m 21.2 C 30.6 km/h
23.09.2018 22:34 23.5 C 62 % 1012.2 mbar 0.00 mm 17.9 km/h SW 235 0 min 0.0 UV-I 0 W/m 21.0 C 27.4 km/h
23.09.2018 22:32 23.6 C 62 % 1011.8 mbar 0.00 mm 17.7 km/h S 185 0 min 0.0 UV-I 0 W/m 21.2 C 40.2 km/h
23.09.2018 22:30 23.6 C 61 % 1011.8 mbar 0.00 mm 19.6 km/h W-NW 285 0 min 0.0 UV-I 0 W/m 20.9 C 41.8 km/h
23.09.2018 22:28 23.7 C 60 % 1011.6 mbar 0.20 mm 19.2 km/h S 175 0 min 0.0 UV-I 0 W/m 21.1 C 29.0 km/h
23.09.2018 22:26 23.8 C 59 % 1011.7 mbar 0.00 mm 20.6 km/h S 170 0 min 0.0 UV-I 0 W/m 21.0 C 35.4 km/h
23.09.2018 22:24 23.8 C 60 % 1012.1 mbar 0.00 mm 12.8 km/h S 175 0 min 0.0 UV-I 0 W/m 22.2 C 19.3 km/h
23.09.2018 22:22 23.9 C 58 % 1012.0 mbar 0.00 mm 16.3 km/h S-SW 194 0 min 0.0 UV-I 0 W/m 21.8 C 37.0 km/h
23.09.2018 22:20 23.9 C 60 % 1012.1 mbar 0.00 mm 25.5 km/h SW 230 0 min 0.0 UV-I 0 W/m 20.6 C 43.5 km/h
23.09.2018 22:18 24.0 C 57 % 1012.1 mbar 0.00 mm 18.8 km/h SO 146 0 min 0.0 UV-I 0 W/m 21.5 C 24.1 km/h
23.09.2018 22:16 23.9 C 57 % 1012.5 mbar 0.00 mm 17.3 km/h S-SW 192 0 min 0.0 UV-I 0 W/m 21.6 C 32.2 km/h
23.09.2018 22:14 23.8 C 59 % 1012.7 mbar 0.00 mm 21.0 km/h SW 219 0 min 0.0 UV-I 0 W/m 21.0 C 40.2 km/h
23.09.2018 22:12 23.6 C 59 % 1012.2 mbar 0.00 mm 20.8 km/h S-SW 211 0 min 0.0 UV-I 0 W/m 20.8 C 33.8 km/h
23.09.2018 22:10 23.3 C 60 % 1012.5 mbar 0.00 mm 24.7 km/h S 185 0 min 0.0 UV-I 0 W/m 19.9 C 41.8 km/h
23.09.2018 22:08 23.1 C 62 % 1012.0 mbar 0.00 mm 21.5 km/h W 279 0 min 0.0 UV-I 0 W/m 20.0 C 38.6 km/h
23.09.2018 22:06 22.9 C 64 % 1012.3 mbar 0.00 mm 21.0 km/h S 185 0 min 0.0 UV-I 0 W/m 19.8 C 40.2 km/h
23.09.2018 22:04 22.9 C 65 % 1012.0 mbar 0.00 mm 10.1 km/h S 171 0 min 0.0 UV-I 0 W/m 21.8 C 16.1 km/h
23.09.2018 22:02 23.1 C 69 % 1012.1 mbar 0.00 mm 9.8 km/h W-SW 237 0 min 0.0 UV-I 0 W/m 22.1 C 17.7 km/h
23.09.2018 22:00 23.3 C 68 % 1012.1 mbar 0.00 mm 12.9 km/h SW 214 0 min 0.0 UV-I 0 W/m 21.6 C 20.9 km/h
23.09.2018 21:58 23.2 C 62 % 1011.9 mbar 0.00 mm 14.8 km/h O 97 0 min 0.0 UV-I 0 W/m 21.2 C 27.4 km/h
23.09.2018 21:56 23.1 C 62 % 1012.2 mbar 0.00 mm 17.5 km/h W-SW 246 0 min 0.0 UV-I 0 W/m 20.6 C 41.8 km/h
23.09.2018 21:54 22.8 C 64 % 1012.0 mbar 0.00 mm 16.5 km/h SW 223 0 min 0.0 UV-I 0 W/m 20.4 C 38.6 km/h
23.09.2018 21:52 22.5 C 67 % 1012.4 mbar 0.00 mm 19.2 km/h W-NW 301 0 min 0.0 UV-I 0 W/m 19.6 C 32.2 km/h
23.09.2018 21:50 22.3 C 65 % 1011.9 mbar 0.00 mm 19.8 km/h S-SW 208 0 min 0.0 UV-I 0 W/m 19.2 C 45.1 km/h
23.09.2018 21:48 22.3 C 69 % 1012.4 mbar 0.00 mm 20.4 km/h SW 227 0 min 0.0 UV-I 0 W/m 19.1 C 48.3 km/h
23.09.2018 21:46 22.6 C 70 % 1012.3 mbar 0.00 mm 10.7 km/h SW 220 0 min 0.0 UV-I 0 W/m 21.3 C 14.5 km/h
23.09.2018 21:44 22.7 C 67 % 1012.3 mbar 0.00 mm 13.9 km/h S 169 0 min 0.0 UV-I 0 W/m 20.7 C 19.3 km/h
23.09.2018 21:42 22.7 C 66 % 1012.1 mbar 0.00 mm 8.4 km/h W-SW 239 0 min 0.0 UV-I 0 W/m 22.1 C 19.3 km/h
23.09.2018 21:40 22.7 C 67 % 1012.2 mbar 0.00 mm 14.5 km/h S-SW 196 0 min 0.0 UV-I 0 W/m 20.6 C 24.1 km/h
23.09.2018 21:38 22.8 C 69 % 1012.4 mbar 0.20 mm 17.9 km/h SW 218 0 min 0.0 UV-I 0 W/m 20.1 C 29.0 km/h
23.09.2018 21:36 22.8 C 67 % 1012.4 mbar 0.00 mm 28.2 km/h SW 231 0 min 0.0 UV-I 0 W/m 18.8 C 41.8 km/h
23.09.2018 21:34 22.8 C 67 % 1012.2 mbar 0.00 mm 22.7 km/h S-SO 156 0 min 0.0 UV-I 0 W/m 19.5 C 32.2 km/h
23.09.2018 21:32 23.1 C 65 % 1012.2 mbar 0.00 mm 22.7 km/h S 175 0 min 0.0 UV-I 0 W/m 19.9 C 38.6 km/h
23.09.2018 21:30 23.2 C 64 % 1012.2 mbar 0.00 mm 21.7 km/h SW 235 0 min 0.0 UV-I 0 W/m 20.1 C 38.6 km/h
23.09.2018 21:28 23.4 C 66 % 1012.0 mbar 0.00 mm 10.7 km/h SW 230 0 min 0.0 UV-I 0 W/m 22.2 C 17.7 km/h
23.09.2018 21:26 23.7 C 65 % 1012.4 mbar 0.00 mm 13.6 km/h SW 228 0 min 0.0 UV-I 0 W/m 22.0 C 22.5 km/h
23.09.2018 21:24 24.1 C 60 % 1012.5 mbar 0.00 mm 20.9 km/h W-SW 241 0 min 0.0 UV-I 0 W/m 21.4 C 30.6 km/h
23.09.2018 21:22 24.6 C 61 % 1012.0 mbar 0.20 mm 12.5 km/h SW 224 0 min 0.0 UV-I 0 W/m 23.2 C 29.0 km/h
23.09.2018 21:20 24.9 C 62 % 1011.9 mbar 0.20 mm 12.3 km/h S 185 0 min 0.0 UV-I 0 W/m 23.6 C 19.3 km/h
23.09.2018 21:18 25.2 C 58 % 1012.2 mbar 0.20 mm 18.1 km/h SW 236 0 min 0.0 UV-I 0 W/m 23.1 C 24.1 km/h
23.09.2018 21:16 25.3 C 54 % 1012.1 mbar 0.20 mm 14.8 km/h W 265 0 min 0.0 UV-I 0 W/m 23.7 C 27.4 km/h
23.09.2018 21:14 25.3 C 52 % 1011.4 mbar 0.00 mm 18.0 km/h W-SW 255 0 min 0.0 UV-I 0 W/m 23.3 C 27.4 km/h
23.09.2018 21:12 25.2 C 53 % 1010.9 mbar 0.00 mm 14.2 km/h W 261 0 min 0.0 UV-I 0 W/m 23.7 C 24.1 km/h
23.09.2018 21:10 25.1 C 50 % 1010.5 mbar 0.00 mm 14.6 km/h S 180 0 min 0.0 UV-I 0 W/m 23.5 C 20.9 km/h
23.09.2018 21:08 24.9 C 54 % 1010.8 mbar 0.00 mm 13.4 km/h W-SW 240 0 min 0.0 UV-I 0 W/m 23.4 C 29.0 km/h
23.09.2018 21:06 24.9 C 59 % 1010.6 mbar 0.00 mm 14.4 km/h S-SW 203 0 min 0.0 UV-I 0 W/m 23.3 C 20.9 km/h
23.09.2018 21:04 24.9 C 53 % 1010.7 mbar 0.00 mm 11.3 km/h SW 233 0 min 0.0 UV-I 0 W/m 23.8 C 17.7 km/h
23.09.2018 21:02 24.8 C 55 % 1010.5 mbar 0.00 mm 8.2 km/h S-SW 203 0 min 0.0 UV-I 0 W/m 24.3 C 17.7 km/h
23.09.2018 21:00 24.8 C 57 % 1010.4 mbar 0.00 mm 4.9 km/h SW 220 0 min 0.0 UV-I 0 W/m 24.8 C 9.7 km/h
23.09.2018 20:58 24.7 C 57 % 1010.6 mbar 0.00 mm 12.8 km/h SW 230 0 min 0.0 UV-I 0 W/m 23.3 C 17.7 km/h
23.09.2018 20:56 24.4 C 53 % 1010.4 mbar 0.00 mm 8.4 km/h W 264 0 min 0.0 UV-I 0 W/m 23.9 C 14.5 km/h
23.09.2018 20:54 24.3 C 55 % 1010.6 mbar 0.00 mm 10.4 km/h W 274 0 min 0.0 UV-I 0 W/m 23.3 C 17.7 km/h
23.09.2018 20:52 24.0 C 55 % 1010.6 mbar 0.00 mm 14.7 km/h W-SW 254 0 min 0.0 UV-I 0 W/m 22.1 C 22.5 km/h
23.09.2018 20:50 23.8 C 58 % 1010.6 mbar 0.00 mm 10.9 km/h W-SW 245 0 min 0.0 UV-I 0 W/m 22.6 C 16.1 km/h
23.09.2018 20:48 23.6 C 57 % 1010.7 mbar 0.00 mm 10.4 km/h SW 224 0 min 0.0 UV-I 0 W/m 22.5 C 19.3 km/h
23.09.2018 20:46 23.4 C 61 % 1010.6 mbar 0.00 mm 12.2 km/h W-SW 256 0 min 0.0 UV-I 0 W/m 21.9 C 22.5 km/h
23.09.2018 20:44 23.4 C 63 % 1010.7 mbar 0.00 mm 8.0 km/h SW 214 0 min 0.0 UV-I 0 W/m 22.9 C 16.1 km/h
23.09.2018 20:42 23.4 C 65 % 1010.8 mbar 0.00 mm 9.5 km/h SW 231 0 min 0.0 UV-I 0 W/m 22.5 C 14.5 km/h
23.09.2018 20:40 23.5 C 65 % 1010.7 mbar 0.00 mm 5.6 km/h SW 214 0 min 0.0 UV-I 0 W/m 23.5 C 12.9 km/h
23.09.2018 20:38 23.5 C 61 % 1011.0 mbar 0.00 mm 6.3 km/h S 175 0 min 0.0 UV-I 0 W/m 23.5 C 9.7 km/h
23.09.2018 20:36 23.6 C 65 % 1011.2 mbar 0.00 mm 7.9 km/h S-SW 203 0 min 0.0 UV-I 0 W/m 23.2 C 11.3 km/h
23.09.2018 20:34 23.7 C 64 % 1011.3 mbar 0.00 mm 10.9 km/h SW 230 0 min 0.0 UV-I 0 W/m 22.5 C 14.5 km/h
23.09.2018 20:32 23.8 C 67 % 1011.1 mbar 0.00 mm 4.6 km/h SW 223 0 min 0.0 UV-I 0 W/m 23.8 C 8.0 km/h
23.09.2018 20:30 24.3 C 63 % 1011.1 mbar 0.00 mm 10.1 km/h S-SO 166 0 min 0.0 UV-I 0 W/m 23.4 C 16.1 km/h
23.09.2018 20:28 24.7 C 59 % 1011.0 mbar 0.00 mm 9.6 km/h S 175 0 min 0.0 UV-I 0 W/m 23.9 C 12.9 km/h
23.09.2018 20:26 24.9 C 59 % 1011.1 mbar 0.00 mm 14.2 km/h SW 214 0 min 0.0 UV-I 0 W/m 23.3 C 20.9 km/h
23.09.2018 20:24 25.1 C 56 % 1011.2 mbar 0.00 mm 13.3 km/h S-SO 167 0 min 0.0 UV-I 0 W/m 23.7 C 19.3 km/h
23.09.2018 20:22 25.0 C 55 % 1011.3 mbar 0.00 mm 9.1 km/h SW 220 0 min 0.0 UV-I 0 W/m 24.4 C 16.1 km/h
23.09.2018 20:20 24.8 C 55 % 1011.4 mbar 0.00 mm 13.7 km/h SW 226 0 min 0.0 UV-I 0 W/m 23.3 C 20.9 km/h
23.09.2018 20:18 24.7 C 55 % 1011.4 mbar 0.00 mm 19.8 km/h SW 220 0 min 0.0 UV-I 0 W/m 22.3 C 30.6 km/h
23.09.2018 20:16 24.4 C 58 % 1011.6 mbar 0.00 mm 11.4 km/h W-SW 243 0 min 0.0 UV-I 0 W/m 23.2 C 30.6 km/h
23.09.2018 20:14 24.4 C 59 % 1011.3 mbar 0.00 mm 6.0 km/h S 191 0 min 0.0 UV-I 0 W/m 24.4 C 8.0 km/h
23.09.2018 20:12 24.3 C 56 % 1011.3 mbar 0.00 mm 9.3 km/h W-SW 245 0 min 0.0 UV-I 0 W/m 23.5 C 16.1 km/h
23.09.2018 20:10 24.1 C 57 % 1011.1 mbar 0.00 mm 17.7 km/h W-SW 242 0 min 0.0 UV-I 0 W/m 21.8 C 25.7 km/h
23.09.2018 20:08 24.0 C 59 % 1011.1 mbar 0.00 mm 16.6 km/h W-SW 251 0 min 0.0 UV-I 0 W/m 21.8 C 27.4 km/h
23.09.2018 20:06 23.9 C 59 % 1011.3 mbar 0.00 mm 15.6 km/h SW 232 0 min 0.0 UV-I 0 W/m 21.9 C 25.7 km/h
23.09.2018 20:04 23.9 C 61 % 1011.4 mbar 0.00 mm 10.4 km/h W-SW 256 0 min 0.0 UV-I 0 W/m 22.9 C 22.5 km/h
23.09.2018 20:02 24.1 C 63 % 1011.3 mbar 0.00 mm 8.7 km/h W-SW 239 0 min 0.0 UV-I 0 W/m 23.5 C 14.5 km/h
23.09.2018 20:00 24.4 C 63 % 1011.5 mbar 0.00 mm 9.8 km/h S 185 0 min 0.0 UV-I 0 W/m 23.5 C 16.1 km/h
23.09.2018 19:58 24.6 C 60 % 1011.3 mbar 0.00 mm 9.6 km/h S 180 0 min 0.0 UV-I 0 W/m 23.8 C 17.7 km/h
23.09.2018 19:56 24.7 C 59 % 1011.2 mbar 0.00 mm 11.8 km/h SW 233 0 min 0.0 UV-I 0 W/m 23.5 C 19.3 km/h
23.09.2018 19:54 24.7 C 59 % 1011.3 mbar 0.00 mm 11.0 km/h SW 227 0 min 0.0 UV-I 0 W/m 23.6 C 16.1 km/h
23.09.2018 19:52 24.8 C 58 % 1011.3 mbar 0.00 mm 12.5 km/h SO 141 0 min 0.0 UV-I 0 W/m 23.5 C 20.9 km/h
23.09.2018 19:50 25.1 C 58 % 1011.3 mbar 0.00 mm 15.8 km/h S-SO 162 0 min 0.0 UV-I 0 W/m 23.3 C 20.9 km/h
23.09.2018 19:48 25.2 C 53 % 1011.3 mbar 0.20 mm 18.9 km/h SW 223 0 min 0.0 UV-I 0 W/m 23.0 C 29.0 km/h
23.09.2018 19:46 25.2 C 57 % 1011.5 mbar 0.00 mm 15.5 km/h SW 232 0 min 0.0 UV-I 0 W/m 23.5 C 32.2 km/h
23.09.2018 19:44 25.3 C 58 % 1011.5 mbar 0.00 mm 13.3 km/h W-SW 240 0 min 0.0 UV-I 0 W/m 23.9 C 22.5 km/h
23.09.2018 19:42 25.4 C 53 % 1011.3 mbar 0.00 mm 18.4 km/h S 185 0 min 0.0 UV-I 0 W/m 23.4 C 25.7 km/h
23.09.2018 19:40 25.6 C 56 % 1011.5 mbar 0.00 mm 15.1 km/h W-SW 253 0 min 0.0 UV-I 0 W/m 24.0 C 20.9 km/h
23.09.2018 19:38 25.7 C 55 % 1011.5 mbar 0.00 mm 10.9 km/h SW 235 0 min 0.0 UV-I 0 W/m 24.8 C 19.3 km/h
23.09.2018 19:36 25.8 C 55 % 1011.0 mbar 0.00 mm 9.4 km/h S 171 0 min 0.0 UV-I 0 W/m 25.2 C 14.5 km/h
23.09.2018 19:34 25.8 C 53 % 1011.0 mbar 0.00 mm 11.6 km/h S-SO 160 0 min 0.0 UV-I 0 W/m 24.8 C 16.1 km/h
23.09.2018 19:32 25.9 C 52 % 1011.1 mbar 0.00 mm 7.4 km/h S-SW 209 0 min 0.0 UV-I 0 W/m 25.7 C 12.9 km/h
23.09.2018 19:30 25.9 C 51 % 1011.0 mbar 0.00 mm 13.9 km/h SW 224 0 min 0.0 UV-I 0 W/m 24.5 C 17.7 km/h
23.09.2018 19:28 25.9 C 53 % 1011.1 mbar 0.00 mm 12.3 km/h S-SW 205 0 min 0.0 UV-I 0 W/m 24.8 C 20.9 km/h
23.09.2018 19:26 26.1 C 53 % 1010.9 mbar 0.00 mm 9.8 km/h S 175 0 min 0.0 UV-I 0 W/m 25.4 C 16.1 km/h
23.09.2018 19:24 26.1 C 52 % 1011.1 mbar 0.00 mm 7.8 km/h S-SW 199 0 min 0.0 UV-I 0 W/m 25.8 C 12.9 km/h
23.09.2018 19:22 26.0 C 51 % 1011.0 mbar 0.00 mm 10.7 km/h W-SW 245 0 min 0.0 UV-I 0 W/m 25.1 C 19.3 km/h
23.09.2018 19:20 25.9 C 51 % 1011.0 mbar 0.00 mm 16.4 km/h S-SO 162 0 min 0.0 UV-I 0 W/m 24.2 C 24.1 km/h
23.09.2018 19:18 25.9 C 51 % 1011.0 mbar 0.00 mm 18.9 km/h W 266 0 min 0.0 UV-I 0 W/m 23.9 C 29.0 km/h
23.09.2018 19:16 26.0 C 53 % 1011.2 mbar 0.00 mm 12.7 km/h W 264 0 min 0.0 UV-I 0 W/m 24.8 C 20.9 km/h
23.09.2018 19:14 26.1 C 53 % 1011.0 mbar 0.00 mm 16.6 km/h S-SW 210 0 min 0.0 UV-I 0 W/m 24.4 C 30.6 km/h
23.09.2018 19:12 26.2 C 53 % 1011.0 mbar 0.00 mm 9.1 km/h SW 226 0 min 0.0 UV-I 0 W/m 25.6 C 17.7 km/h
23.09.2018 19:10 26.2 C 52 % 1010.9 mbar 0.00 mm 6.0 km/h W-SW 237 0 min 0.0 UV-I 0 W/m 26.2 C 9.7 km/h
23.09.2018 19:08 26.2 C 51 % 1010.9 mbar 0.00 mm 15.6 km/h SW 222 0 min 0.0 UV-I 0 W/m 24.7 C 24.1 km/h
23.09.2018 19:06 26.2 C 52 % 1011.3 mbar 0.00 mm 21.8 km/h SW 223 0 min 0.0 UV-I 5 W/m 24.0 C 37.0 km/h
23.09.2018 19:04 26.2 C 50 % 1010.9 mbar 0.00 mm 15.9 km/h W-SW 247 0 min 0.0 UV-I 5 W/m 24.7 C 20.9 km/h
23.09.2018 19:02 26.2 C 51 % 1011.1 mbar 0.00 mm 16.9 km/h W-SW 256 0 min 0.0 UV-I 5 W/m 24.5 C 24.1 km/h
23.09.2018 19:00 26.2 C 52 % 1011.1 mbar 0.00 mm 13.6 km/h W-SW 254 0 min 0.0 UV-I 5 W/m 24.9 C 22.5 km/h
23.09.2018 18:58 26.2 C 51 % 1011.2 mbar 0.00 mm 24.8 km/h W-SW 247 0 min 0.0 UV-I 7 W/m 23.8 C 32.2 km/h
23.09.2018 18:56 26.1 C 51 % 1011.0 mbar 0.00 mm 20.6 km/h W-SW 242 0 min 0.0 UV-I 9 W/m 24.0 C 30.6 km/h
23.09.2018 18:54 26.1 C 52 % 1011.0 mbar 0.00 mm 11.9 km/h SW 222 0 min 0.0 UV-I 9 W/m 25.1 C 19.3 km/h
23.09.2018 18:52 26.1 C 52 % 1011.0 mbar 0.00 mm 14.5 km/h W-SW 240 0 min 0.0 UV-I 9 W/m 24.7 C 20.9 km/h
23.09.2018 18:50 26.1 C 53 % 1011.0 mbar 0.00 mm 8.9 km/h SW 222 0 min 0.0 UV-I 11 W/m 25.6 C 16.1 km/h
23.09.2018 18:48 26.1 C 53 % 1011.0 mbar 0.00 mm 17.3 km/h W-SW 238 0 min 0.0 UV-I 12 W/m 24.4 C 22.5 km/h
23.09.2018 18:46 26.2 C 54 % 1011.2 mbar 0.00 mm 13.0 km/h W-SW 243 0 min 0.0 UV-I 19 W/m 25.0 C 20.9 km/h
23.09.2018 18:44 26.1 C 52 % 1011.0 mbar 0.00 mm 16.7 km/h SW 229 0 min 0.0 UV-I 19 W/m 24.4 C 22.5 km/h
23.09.2018 18:42 26.1 C 52 % 1011.2 mbar 0.00 mm 17.8 km/h SW 227 0 min 0.0 UV-I 18 W/m 24.3 C 25.7 km/h
23.09.2018 18:40 26.2 C 54 % 1011.2 mbar 0.00 mm 9.3 km/h W-SW 256 0 min 0.0 UV-I 18 W/m 25.6 C 16.1 km/h
23.09.2018 18:38 26.2 C 53 % 1011.2 mbar 0.00 mm 21.3 km/h W-SW 242 0 min 0.0 UV-I 18 W/m 24.1 C 32.2 km/h
23.09.2018 18:36 26.3 C 53 % 1011.2 mbar 0.00 mm 17.3 km/h W-SW 254 0 min 0.0 UV-I 19 W/m 24.6 C 25.7 km/h
23.09.2018 18:34 26.3 C 53 % 1011.4 mbar 0.00 mm 18.7 km/h W-SW 239 0 min 0.0 UV-I 25 W/m 24.5 C 25.7 km/h
23.09.2018 18:32 26.3 C 53 % 1011.4 mbar 0.00 mm 15.8 km/h W-SW 241 0 min 0.0 UV-I 28 W/m 24.8 C 24.1 km/h
23.09.2018 18:30 26.4 C 52 % 1011.2 mbar 0.00 mm 19.5 km/h W-SW 258 0 min 0.0 UV-I 30 W/m 24.5 C 35.4 km/h
23.09.2018 18:28 26.3 C 53 % 1011.2 mbar 0.00 mm 18.1 km/h W-SW 248 0 min 0.0 UV-I 35 W/m 24.5 C 32.2 km/h
23.09.2018 18:26 26.2 C 53 % 1011.5 mbar 0.00 mm 20.5 km/h W 262 0 min 0.0 UV-I 33 W/m 24.2 C 35.4 km/h
23.09.2018 18:24 26.1 C 53 % 1011.3 mbar 0.00 mm 20.1 km/h W 276 0 min 0.0 UV-I 35 W/m 24.1 C 25.7 km/h
23.09.2018 18:22 26.0 C 54 % 1011.2 mbar 0.00 mm 20.2 km/h SW 226 0 min 0.0 UV-I 35 W/m 23.9 C 35.4 km/h
23.09.2018 18:20 25.8 C 54 % 1011.2 mbar 0.00 mm 24.0 km/h W 264 0 min 0.0 UV-I 30 W/m 23.3 C 33.8 km/h
23.09.2018 18:18 25.6 C 55 % 1011.1 mbar 0.00 mm 17.8 km/h SW 229 0 min 0.0 UV-I 35 W/m 23.7 C 35.4 km/h
23.09.2018 18:16 25.3 C 56 % 1011.1 mbar 0.00 mm 18.7 km/h W 268 0 min 0.0 UV-I 37 W/m 23.2 C 32.2 km/h
23.09.2018 18:14 24.9 C 58 % 1011.2 mbar 0.00 mm 12.3 km/h W-SW 243 0 min 0.0 UV-I 35 W/m 23.6 C 20.9 km/h
23.09.2018 18:12 24.7 C 58 % 1011.3 mbar 0.00 mm 24.7 km/h S-SW 204 0 min 0.0 UV-I 40 W/m 21.8 C 37.0 km/h
23.09.2018 18:10 24.2 C 59 % 1011.0 mbar 0.00 mm 22.0 km/h W-SW 258 0 min 0.0 UV-I 37 W/m 21.4 C 38.6 km/h
23.09.2018 18:08 23.9 C 67 % 1011.4 mbar 0.00 mm 9.5 km/h S 191 0 min 0.0 UV-I 35 W/m 23.1 C 25.7 km/h
23.09.2018 18:06 24.0 C 67 % 1011.4 mbar 0.00 mm 7.4 km/h S-SW 207 0 min 0.0 UV-I 32 W/m 23.7 C 12.9 km/h
23.09.2018 18:04 24.1 C 71 % 1011.5 mbar 0.00 mm 5.6 km/h SW 226 0 min 0.0 UV-I 37 W/m 24.1 C 8.0 km/h
23.09.2018 18:02 24.1 C 71 % 1011.6 mbar 0.00 mm 1.2 km/h SW 226 0 min 0.0 UV-I 37 W/m 24.1 C 3.2 km/h
23.09.2018 18:00 24.1 C 69 % 1011.5 mbar 0.00 mm 1.5 km/h SW 226 0 min 0.0 UV-I 33 W/m 24.1 C 3.2 km/h
23.09.2018 17:58 24.1 C 66 % 1011.5 mbar 0.00 mm 2.7 km/h SW 226 0 min 0.0 UV-I 37 W/m 24.1 C 8.0 km/h
23.09.2018 17:56 24.0 C 66 % 1011.4 mbar 0.00 mm 4.9 km/h SW 230 0 min 0.0 UV-I 44 W/m 24.0 C 9.7 km/h
23.09.2018 17:54 23.9 C 71 % 1011.3 mbar 0.00 mm 8.9 km/h SO 137 0 min 0.0 UV-I 44 W/m 23.2 C 14.5 km/h
23.09.2018 17:52 23.8 C 69 % 1011.3 mbar 0.00 mm 12.6 km/h S-SO 158 0 min 0.0 UV-I 46 W/m 22.3 C 24.1 km/h
23.09.2018 17:50 23.6 C 69 % 1011.2 mbar 0.00 mm 4.6 km/h W 276 0 min 0.0 UV-I 47 W/m 23.6 C 8.0 km/h
23.09.2018 17:48 23.6 C 67 % 1011.2 mbar 0.00 mm 4.2 km/h O-SO 120 0 min 0.0 UV-I 54 W/m 23.6 C 9.7 km/h
23.09.2018 17:46 23.6 C 70 % 1011.2 mbar 0.00 mm 4.0 km/h O-NO 77 0 min 0.0 UV-I 65 W/m 23.6 C 8.0 km/h
23.09.2018 17:44 23.5 C 73 % 1011.3 mbar 0.00 mm 3.3 km/h N-NO 18 0 min 0.0 UV-I 67 W/m 23.5 C 9.7 km/h
23.09.2018 17:42 23.6 C 73 % 1011.3 mbar 0.00 mm 4.1 km/h NW 322 0 min 0.0 UV-I 58 W/m 23.6 C 6.4 km/h
23.09.2018 17:40 23.6 C 75 % 1011.2 mbar 0.00 mm 2.9 km/h W 269 0 min 0.0 UV-I 53 W/m 23.6 C 4.8 km/h
23.09.2018 17:38 23.6 C 73 % 1011.3 mbar 0.00 mm 3.2 km/h N-NW 330 0 min 0.0 UV-I 51 W/m 23.6 C 6.4 km/h
23.09.2018 17:36 23.6 C 74 % 1011.3 mbar 0.00 mm 3.5 km/h NO 47 0 min 0.0 UV-I 49 W/m 23.6 C 6.4 km/h
23.09.2018 17:34 23.7 C 73 % 1011.3 mbar 0.00 mm 5.6 km/h N-NO 20 0 min 0.0 UV-I 51 W/m 23.7 C 9.7 km/h
23.09.2018 17:32 23.8 C 76 % 1011.3 mbar 0.00 mm 2.0 km/h W-SW 239 0 min 0.5 UV-I 58 W/m 23.8 C 3.2 km/h
23.09.2018 17:30 23.8 C 76 % 1011.3 mbar 0.00 mm 3.7 km/h W-SW 239 0 min 0.5 UV-I 70 W/m 23.8 C 6.4 km/h
23.09.2018 17:28 23.8 C 75 % 1011.4 mbar 0.00 mm 2.0 km/h NO 49 0 min 0.5 UV-I 81 W/m 23.8 C 4.8 km/h
23.09.2018 17:26 23.8 C 74 % 1011.2 mbar 0.00 mm 2.2 km/h NO 49 0 min 0.5 UV-I 84 W/m 23.8 C 6.4 km/h
23.09.2018 17:24 23.8 C 74 % 1011.3 mbar 0.00 mm 0.4 km/h O-SO 120 0 min 0.5 UV-I 72 W/m 23.8 C 1.6 km/h
23.09.2018 17:22 23.8 C 72 % 1011.3 mbar 0.00 mm 1.3 km/h O-SO 120 0 min 0.5 UV-I 72 W/m 23.8 C 3.2 km/h
23.09.2018 17:20 23.9 C 72 % 1011.5 mbar 0.00 mm 4.0 km/h O-SO 120 0 min 0.5 UV-I 65 W/m 23.9 C 4.8 km/h
23.09.2018 17:18 24.1 C 75 % 1011.6 mbar 0.00 mm 4.5 km/h O-SO 120 0 min 0.6 UV-I 65 W/m 24.1 C 6.4 km/h
23.09.2018 17:16 24.2 C 72 % 1011.6 mbar 0.00 mm 1.4 km/h W 263 0 min 0.5 UV-I 69 W/m 24.2 C 4.8 km/h
23.09.2018 17:14 24.2 C 74 % 1011.6 mbar 0.00 mm 4.4 km/h W 263 0 min 0.6 UV-I 76 W/m 24.2 C 6.4 km/h
23.09.2018 17:12 24.2 C 68 % 1011.6 mbar 0.00 mm 1.5 km/h NO 47 0 min 0.6 UV-I 84 W/m 24.2 C 3.2 km/h
23.09.2018 17:10 24.2 C 68 % 1011.6 mbar 0.00 mm 2.6 km/h NO 47 0 min 0.6 UV-I 90 W/m 24.2 C 4.8 km/h
23.09.2018 17:08 24.3 C 69 % 1011.6 mbar 0.00 mm 3.6 km/h NO 36 0 min 0.5 UV-I 98 W/m 24.3 C 6.4 km/h
23.09.2018 17:06 24.4 C 71 % 1011.9 mbar 0.00 mm 4.2 km/h W-SW 252 0 min 0.5 UV-I 90 W/m 24.4 C 12.9 km/h
23.09.2018 17:04 24.6 C 72 % 1012.0 mbar 0.00 mm 7.8 km/h W 272 0 min 0.5 UV-I 100 W/m 24.2 C 11.3 km/h
23.09.2018 17:02 24.7 C 71 % 1011.8 mbar 0.00 mm 2.7 km/h W 262 0 min 0.5 UV-I 98 W/m 24.7 C 4.8 km/h
23.09.2018 17:00 24.7 C 72 % 1011.9 mbar 0.00 mm 4.1 km/h S-SO 156 0 min 0.5 UV-I 97 W/m 24.7 C 8.0 km/h
23.09.2018 16:58 24.8 C 69 % 1012.0 mbar 0.00 mm 0.9 km/h N-NW 343 0 min 0.5 UV-I 88 W/m 24.8 C 1.6 km/h
23.09.2018 16:56 24.8 C 68 % 1012.1 mbar 0.00 mm 3.1 km/h N-NW 343 0 min 0.5 UV-I 86 W/m 24.8 C 6.4 km/h
23.09.2018 16:54 24.9 C 68 % 1012.2 mbar 0.00 mm 3.3 km/h N-NW 334 0 min 0.5 UV-I 91 W/m 24.9 C 6.4 km/h
23.09.2018 16:52 25.1 C 67 % 1012.1 mbar 0.00 mm 5.0 km/h N-NW 335 0 min 0.5 UV-I 107 W/m 25.1 C 9.7 km/h
23.09.2018 16:50 25.2 C 67 % 1012.1 mbar 0.00 mm 1.8 km/h N-NO 16 0 min 0.6 UV-I 111 W/m 25.2 C 3.2 km/h
23.09.2018 16:48 25.3 C 67 % 1012.1 mbar 0.00 mm 2.4 km/h N-NO 16 0 min 0.7 UV-I 123 W/m 25.3 C 4.8 km/h
23.09.2018 16:46 25.4 C 66 % 1012.1 mbar 0.00 mm 4.1 km/h N-NW 341 0 min 0.7 UV-I 123 W/m 25.4 C 8.0 km/h
23.09.2018 16:44 25.6 C 64 % 1012.1 mbar 0.00 mm 6.5 km/h NO 41 0 min 0.8 UV-I 125 W/m 25.6 C 11.3 km/h
23.09.2018 16:42 25.7 C 66 % 1012.1 mbar 0.00 mm 5.3 km/h NO 37 0 min 0.9 UV-I 132 W/m 25.7 C 8.0 km/h
23.09.2018 16:40 25.8 C 65 % 1012.2 mbar 0.00 mm 4.8 km/h N-NW 337 0 min 0.9 UV-I 135 W/m 25.8 C 9.7 km/h
23.09.2018 16:38 25.9 C 64 % 1012.2 mbar 0.00 mm 5.2 km/h N 6 0 min 1.0 UV-I 142 W/m 25.9 C 8.0 km/h
23.09.2018 16:36 25.9 C 66 % 1012.2 mbar 0.00 mm 3.7 km/h NO 43 0 min 1.0 UV-I 148 W/m 25.9 C 6.4 km/h
23.09.2018 16:34 26.0 C 65 % 1012.2 mbar 0.00 mm 3.2 km/h W 278 0 min 0.9 UV-I 142 W/m 26.0 C 4.8 km/h
23.09.2018 16:32 26.1 C 66 % 1012.2 mbar 0.00 mm 3.6 km/h N-NW 337 0 min 1.1 UV-I 134 W/m 26.1 C 4.8 km/h
23.09.2018 16:30 26.1 C 64 % 1012.2 mbar 0.00 mm 2.5 km/h S-SO 147 0 min 1.1 UV-I 132 W/m 26.1 C 6.4 km/h
23.09.2018 16:28 26.2 C 65 % 1012.2 mbar 0.00 mm 6.4 km/h S-SO 162 0 min 1.1 UV-I 132 W/m 26.2 C 8.0 km/h
23.09.2018 16:26 26.2 C 65 % 1012.2 mbar 0.00 mm 5.8 km/h O-NO 58 0 min 1.2 UV-I 141 W/m 26.2 C 8.0 km/h
23.09.2018 16:24 26.2 C 66 % 1012.2 mbar 0.00 mm 4.4 km/h NO 39 0 min 1.3 UV-I 188 W/m 26.2 C 6.4 km/h
23.09.2018 16:22 26.1 C 68 % 1012.2 mbar 0.00 mm 5.1 km/h NO 39 0 min 1.4 UV-I 163 W/m 26.1 C 6.4 km/h
23.09.2018 16:20 25.9 C 67 % 1012.2 mbar 0.00 mm 3.7 km/h NO 47 2 min 1.5 UV-I 457 W/m 25.9 C 6.4 km/h
23.09.2018 16:18 25.9 C 65 % 1012.2 mbar 0.00 mm 4.4 km/h N-NO 30 2 min 2.1 UV-I 550 W/m 25.9 C 6.4 km/h
23.09.2018 16:16 25.8 C 68 % 1012.3 mbar 0.00 mm 4.4 km/h N-NO 31 2 min 2.1 UV-I 559 W/m 25.8 C 6.4 km/h
23.09.2018 16:14 25.6 C 65 % 1012.2 mbar 0.00 mm 6.1 km/h NO 47 2 min 1.8 UV-I 547 W/m 25.6 C 8.0 km/h
23.09.2018 16:12 25.6 C 64 % 1012.2 mbar 0.00 mm 5.6 km/h N 1 2 min 2.0 UV-I 418 W/m 25.6 C 9.7 km/h
23.09.2018 16:10 25.6 C 63 % 1012.2 mbar 0.00 mm 6.1 km/h N-NW 348 2 min 1.8 UV-I 418 W/m 25.6 C 9.7 km/h
23.09.2018 16:08 25.6 C 63 % 1012.3 mbar 0.00 mm 4.3 km/h N 8 0 min 1.6 UV-I 211 W/m 25.6 C 6.4 km/h
23.09.2018 16:06 25.6 C 65 % 1012.4 mbar 0.00 mm 4.8 km/h N-NO 27 0 min 1.5 UV-I 167 W/m 25.6 C 6.4 km/h
23.09.2018 16:04 25.6 C 63 % 1012.2 mbar 0.00 mm 6.5 km/h N 8 2 min 1.9 UV-I 626 W/m 25.6 C 9.7 km/h
23.09.2018 16:02 25.6 C 65 % 1012.3 mbar 0.00 mm 4.9 km/h N-NW 348 2 min 2.4 UV-I 434 W/m 25.6 C 9.7 km/h
23.09.2018 16:00 25.5 C 67 % 1012.4 mbar 0.00 mm 7.2 km/h N-NO 12 2 min 2.4 UV-I 522 W/m 25.3 C 9.7 km/h
23.09.2018 15:58 25.4 C 68 % 1012.3 mbar 0.00 mm 2.7 km/h NO 45 2 min 2.2 UV-I 622 W/m 25.4 C 6.4 km/h
23.09.2018 15:56 25.4 C 66 % 1012.4 mbar 0.00 mm 5.5 km/h N 4 0 min 2.4 UV-I 183 W/m 25.4 C 9.7 km/h
23.09.2018 15:54 25.5 C 64 % 1012.3 mbar 0.00 mm 6.0 km/h N-NW 345 0 min 1.9 UV-I 190 W/m 25.5 C 11.3 km/h
23.09.2018 15:52 25.7 C 64 % 1012.3 mbar 0.00 mm 6.3 km/h N 349 0 min 1.9 UV-I 171 W/m 25.7 C 12.9 km/h
23.09.2018 15:50 25.9 C 64 % 1012.3 mbar 0.00 mm 7.2 km/h O-NO 62 0 min 1.7 UV-I 209 W/m 25.7 C 14.5 km/h
23.09.2018 15:48 26.2 C 64 % 1012.2 mbar 0.00 mm 8.8 km/h NO 35 0 min 1.9 UV-I 239 W/m 25.7 C 14.5 km/h
23.09.2018 15:46 26.3 C 65 % 1012.3 mbar 0.00 mm 4.8 km/h N-NO 12 0 min 1.9 UV-I 241 W/m 26.3 C 9.7 km/h
23.09.2018 15:44 26.3 C 66 % 1012.3 mbar 0.00 mm 4.0 km/h N-NW 336 2 min 2.4 UV-I 596 W/m 26.3 C 8.0 km/h
23.09.2018 15:42 26.3 C 63 % 1012.3 mbar 0.00 mm 3.8 km/h N 359 2 min 2.3 UV-I 591 W/m 26.3 C 6.4 km/h
23.09.2018 15:40 26.2 C 63 % 1012.4 mbar 0.00 mm 5.8 km/h N-NO 26 2 min 2.4 UV-I 591 W/m 26.2 C 14.5 km/h
23.09.2018 15:38 26.2 C 65 % 1012.4 mbar 0.00 mm 13.6 km/h NO 51 2 min 2.9 UV-I 585 W/m 24.9 C 17.7 km/h
23.09.2018 15:36 26.1 C 65 % 1012.3 mbar 0.00 mm 13.4 km/h N-NO 16 2 min 2.4 UV-I 367 W/m 24.9 C 19.3 km/h
23.09.2018 15:34 26.1 C 63 % 1012.5 mbar 0.00 mm 9.8 km/h O-NO 68 2 min 2.3 UV-I 381 W/m 25.4 C 14.5 km/h
23.09.2018 15:32 26.0 C 66 % 1012.5 mbar 0.00 mm 9.2 km/h NO 41 2 min 2.4 UV-I 378 W/m 25.4 C 14.5 km/h
23.09.2018 15:30 25.9 C 64 % 1012.5 mbar 0.00 mm 8.4 km/h N-NO 33 2 min 2.4 UV-I 410 W/m 25.5 C 12.9 km/h
23.09.2018 15:28 25.9 C 62 % 1012.5 mbar 0.00 mm 7.6 km/h N 353 2 min 2.5 UV-I 510 W/m 25.6 C 11.3 km/h
23.09.2018 15:26 25.8 C 66 % 1012.6 mbar 0.00 mm 6.0 km/h NO 34 2 min 2.8 UV-I 438 W/m 25.8 C 9.7 km/h
23.09.2018 15:24 25.8 C 65 % 1012.5 mbar 0.00 mm 8.2 km/h N-NO 14 2 min 2.7 UV-I 357 W/m 25.4 C 11.3 km/h
23.09.2018 15:22 25.9 C 64 % 1012.5 mbar 0.00 mm 10.4 km/h N-NO 27 2 min 3.0 UV-I 357 W/m 25.1 C 16.1 km/h
23.09.2018 15:20 25.9 C 62 % 1012.4 mbar 0.00 mm 10.3 km/h N 9 2 min 3.2 UV-I 657 W/m 25.1 C 19.3 km/h
23.09.2018 15:18 25.9 C 62 % 1012.5 mbar 0.00 mm 7.3 km/h N-NW 343 2 min 3.3 UV-I 628 W/m 25.7 C 19.3 km/h
23.09.2018 15:16 25.9 C 63 % 1012.5 mbar 0.00 mm 9.4 km/h N-NO 31 2 min 3.3 UV-I 599 W/m 25.3 C 12.9 km/h
23.09.2018 15:14 25.9 C 65 % 1012.5 mbar 0.00 mm 13.3 km/h N-NO 27 2 min 3.3 UV-I 601 W/m 24.6 C 17.7 km/h
23.09.2018 15:12 25.7 C 65 % 1012.6 mbar 0.00 mm 7.9 km/h O-NO 58 2 min 3.4 UV-I 624 W/m 25.4 C 11.3 km/h
23.09.2018 15:10 25.7 C 66 % 1012.7 mbar 0.00 mm 10.6 km/h N-NO 14 2 min 2.8 UV-I 352 W/m 24.8 C 16.1 km/h
23.09.2018 15:08 25.6 C 64 % 1012.8 mbar 0.00 mm 10.2 km/h NO 53 2 min 2.6 UV-I 352 W/m 24.8 C 14.5 km/h
23.09.2018 15:06 25.6 C 65 % 1012.9 mbar 0.00 mm 8.5 km/h N 360 2 min 3.5 UV-I 397 W/m 25.1 C 12.9 km/h
23.09.2018 15:04 25.5 C 64 % 1013.0 mbar 0.00 mm 5.4 km/h NO 48 2 min 4.0 UV-I 789 W/m 25.5 C 8.0 km/h
23.09.2018 15:02 25.3 C 65 % 1013.0 mbar 0.00 mm 4.9 km/h NO 48 2 min 3.7 UV-I 455 W/m 25.3 C 9.7 km/h
23.09.2018 15:00 25.3 C 64 % 1013.0 mbar 0.00 mm 9.2 km/h N 7 2 min 3.0 UV-I 455 W/m 24.7 C 11.3 km/h
23.09.2018 14:58 25.3 C 64 % 1013.1 mbar 0.00 mm 3.3 km/h N 351 2 min 2.7 UV-I 383 W/m 25.3 C 9.7 km/h
23.09.2018 14:56 25.4 C 66 % 1013.2 mbar 0.00 mm 4.6 km/h W-NW 291 2 min 2.7 UV-I 329 W/m 25.4 C 6.4 km/h
23.09.2018 14:54 25.4 C 65 % 1013.2 mbar 0.00 mm 6.9 km/h W 268 2 min 2.7 UV-I 329 W/m 25.3 C 11.3 km/h
23.09.2018 14:52 25.5 C 61 % 1013.1 mbar 0.00 mm 7.2 km/h N-NW 343 2 min 2.7 UV-I 378 W/m 25.3 C 11.3 km/h
23.09.2018 14:50 25.6 C 67 % 1013.1 mbar 0.00 mm 11.2 km/h N-NO 20 2 min 2.8 UV-I 485 W/m 24.6 C 14.5 km/h
23.09.2018 14:48 25.5 C 68 % 1013.2 mbar 0.00 mm 8.9 km/h NO 54 2 min 3.2 UV-I 397 W/m 24.9 C 12.9 km/h
23.09.2018 14:46 25.4 C 65 % 1013.3 mbar 0.00 mm 7.6 km/h O-NO 64 2 min 2.9 UV-I 381 W/m 25.1 C 11.3 km/h
23.09.2018 14:44 25.4 C 63 % 1013.3 mbar 0.00 mm 8.0 km/h N-NO 33 2 min 3.0 UV-I 424 W/m 25.0 C 11.3 km/h
23.09.2018 14:42 25.3 C 66 % 1013.3 mbar 0.00 mm 6.0 km/h N-NO 20 2 min 2.9 UV-I 431 W/m 25.3 C 8.0 km/h
23.09.2018 14:40 25.2 C 66 % 1013.4 mbar 0.00 mm 0.4 km/h N-NO 31 2 min 3.3 UV-I 457 W/m 25.2 C 3.2 km/h
23.09.2018 14:38 25.2 C 66 % 1013.5 mbar 0.00 mm 3.9 km/h N 360 2 min 3.1 UV-I 601 W/m 25.2 C 9.7 km/h
23.09.2018 14:36 25.1 C 70 % 1013.5 mbar 0.00 mm 7.6 km/h N-NW 342 2 min 4.1 UV-I 717 W/m 24.8 C 11.3 km/h
23.09.2018 14:34 24.9 C 68 % 1013.5 mbar 0.00 mm 7.4 km/h N-NO 18 2 min 4.1 UV-I 671 W/m 24.6 C 11.3 km/h
23.09.2018 14:32 24.9 C 70 % 1013.5 mbar 0.00 mm 6.4 km/h N-NW 339 2 min 4.4 UV-I 671 W/m 24.9 C 9.7 km/h
23.09.2018 14:30 24.8 C 69 % 1013.6 mbar 0.00 mm 4.3 km/h N 353 2 min 4.3 UV-I 775 W/m 24.8 C 8.0 km/h
23.09.2018 14:28 24.8 C 68 % 1013.6 mbar 0.00 mm 8.2 km/h N 1 2 min 4.5 UV-I 777 W/m 24.3 C 11.3 km/h
23.09.2018 14:26 24.7 C 69 % 1013.7 mbar 0.00 mm 7.2 km/h N-NW 340 2 min 4.4 UV-I 751 W/m 24.5 C 11.3 km/h
23.09.2018 14:24 24.7 C 71 % 1013.7 mbar 0.00 mm 6.5 km/h N-NO 22 2 min 4.4 UV-I 740 W/m 24.7 C 12.9 km/h
23.09.2018 14:22 24.5 C 71 % 1013.8 mbar 0.00 mm 8.1 km/h N-NO 25 2 min 4.4 UV-I 733 W/m 24.1 C 11.3 km/h
23.09.2018 14:20 24.4 C 70 % 1013.8 mbar 0.00 mm 4.6 km/h NO 45 2 min 4.4 UV-I 710 W/m 24.4 C 11.3 km/h
23.09.2018 14:18 24.4 C 66 % 1014.0 mbar 0.00 mm 8.0 km/h N-NW 341 2 min 4.3 UV-I 668 W/m 24.0 C 9.7 km/h
23.09.2018 14:16 24.4 C 68 % 1014.1 mbar 0.00 mm 6.0 km/h N 352 2 min 4.2 UV-I 649 W/m 24.4 C 9.7 km/h
23.09.2018 14:14 24.4 C 68 % 1014.1 mbar 0.00 mm 10.3 km/h N 360 2 min 4.2 UV-I 647 W/m 23.4 C 16.1 km/h
23.09.2018 14:12 24.4 C 71 % 1014.2 mbar 0.00 mm 7.2 km/h N-NW 335 2 min 4.2 UV-I 640 W/m 24.2 C 11.3 km/h
23.09.2018 14:10 24.3 C 70 % 1014.3 mbar 0.00 mm 5.2 km/h NO 52 2 min 4.3 UV-I 640 W/m 24.3 C 11.3 km/h
23.09.2018 14:08 24.2 C 70 % 1014.2 mbar 0.00 mm 6.3 km/h N 4 2 min 4.3 UV-I 645 W/m 24.2 C 11.3 km/h
23.09.2018 14:06 24.2 C 68 % 1014.3 mbar 0.00 mm 7.8 km/h N-NO 20 2 min 4.3 UV-I 654 W/m 23.8 C 11.3 km/h
23.09.2018 14:04 24.2 C 69 % 1014.3 mbar 0.00 mm 9.2 km/h NW 326 2 min 4.4 UV-I 671 W/m 23.5 C 12.9 km/h
23.09.2018 14:02 24.2 C 69 % 1014.4 mbar 0.00 mm 10.6 km/h N-NW 330 2 min 4.4 UV-I 677 W/m 23.1 C 16.1 km/h
23.09.2018 14:00 24.1 C 69 % 1014.6 mbar 0.00 mm 9.7 km/h N-NO 17 2 min 4.4 UV-I 689 W/m 23.2 C 17.7 km/h
23.09.2018 13:58 24.1 C 67 % 1014.6 mbar 0.00 mm 8.4 km/h N-NO 31 2 min 4.5 UV-I 701 W/m 23.6 C 14.5 km/h
23.09.2018 13:56 24.1 C 69 % 1014.6 mbar 0.00 mm 11.4 km/h N 6 2 min 4.5 UV-I 717 W/m 22.9 C 16.1 km/h
23.09.2018 13:54 24.1 C 68 % 1014.7 mbar 0.00 mm 12.1 km/h N-NO 24 2 min 4.5 UV-I 698 W/m 22.7 C 17.7 km/h
23.09.2018 13:52 24.0 C 69 % 1014.7 mbar 0.00 mm 11.8 km/h N-NO 33 2 min 4.5 UV-I 694 W/m 22.7 C 16.1 km/h
23.09.2018 13:50 24.0 C 70 % 1014.7 mbar 0.00 mm 11.2 km/h N 360 2 min 4.5 UV-I 698 W/m 22.8 C 16.1 km/h
23.09.2018 13:48 23.9 C 69 % 1014.8 mbar 0.00 mm 8.4 km/h N-NO 27 2 min 3.8 UV-I 693 W/m 23.3 C 16.1 km/h
23.09.2018 13:46 23.9 C 71 % 1014.7 mbar 0.00 mm 11.2 km/h N-NW 341 2 min 4.5 UV-I 617 W/m 22.7 C 17.7 km/h
23.09.2018 13:44 23.9 C 70 % 1014.9 mbar 0.00 mm 9.3 km/h N-NW 341 2 min 4.5 UV-I 684 W/m 23.1 C 14.5 km/h
23.09.2018 13:42 23.8 C 70 % 1014.9 mbar 0.00 mm 9.4 km/h NO 35 2 min 4.5 UV-I 673 W/m 23.0 C 14.5 km/h
23.09.2018 13:40 23.7 C 71 % 1014.9 mbar 0.00 mm 7.7 km/h NO 53 2 min 4.5 UV-I 654 W/m 23.3 C 14.5 km/h
23.09.2018 13:38 23.5 C 74 % 1014.9 mbar 0.00 mm 7.1 km/h N-NO 25 2 min 4.1 UV-I 677 W/m 23.3 C 14.5 km/h
23.09.2018 13:36 23.4 C 72 % 1015.0 mbar 0.00 mm 6.1 km/h NO 45 2 min 4.5 UV-I 584 W/m 23.4 C 14.5 km/h
23.09.2018 13:34 23.3 C 72 % 1014.9 mbar 0.00 mm 7.1 km/h N 357 2 min 4.5 UV-I 664 W/m 23.1 C 11.3 km/h
23.09.2018 13:32 23.2 C 72 % 1014.9 mbar 0.00 mm 7.9 km/h N-NW 343 2 min 4.4 UV-I 664 W/m 22.7 C 12.9 km/h
23.09.2018 13:30 23.1 C 71 % 1015.0 mbar 0.00 mm 9.7 km/h N-NO 31 2 min 4.5 UV-I 677 W/m 22.1 C 16.1 km/h
23.09.2018 13:28 23.1 C 71 % 1015.0 mbar 0.00 mm 9.0 km/h N 4 2 min 3.7 UV-I 366 W/m 22.3 C 14.5 km/h
23.09.2018 13:26 23.1 C 72 % 1015.1 mbar 0.00 mm 9.4 km/h N-NO 13 2 min 2.7 UV-I 388 W/m 22.2 C 14.5 km/h
23.09.2018 13:24 23.0 C 73 % 1015.1 mbar 0.00 mm 10.9 km/h NO 39 2 min 4.2 UV-I 388 W/m 21.7 C 14.5 km/h
23.09.2018 13:22 23.0 C 74 % 1015.0 mbar 0.00 mm 12.5 km/h N-NO 30 2 min 3.8 UV-I 490 W/m 21.4 C 20.9 km/h
23.09.2018 13:20 23.1 C 72 % 1014.9 mbar 0.00 mm 15.8 km/h N-NO 16 2 min 4.2 UV-I 352 W/m 20.9 C 25.7 km/h
23.09.2018 13:18 23.1 C 73 % 1015.1 mbar 0.00 mm 12.2 km/h N 351 2 min 3.4 UV-I 352 W/m 21.6 C 17.7 km/h
23.09.2018 13:16 22.9 C 73 % 1015.2 mbar 0.00 mm 6.2 km/h N-NO 29 2 min 3.2 UV-I 376 W/m 22.9 C 11.3 km/h
23.09.2018 13:14 22.8 C 74 % 1015.1 mbar 0.00 mm 11.1 km/h N-NO 18 2 min 4.5 UV-I 696 W/m 21.5 C 20.9 km/h
23.09.2018 13:12 22.7 C 73 % 1015.0 mbar 0.00 mm 13.9 km/h N-NO 32 2 min 4.4 UV-I 316 W/m 20.7 C 19.3 km/h
23.09.2018 13:10 22.6 C 74 % 1015.1 mbar 0.00 mm 16.1 km/h NO 45 2 min 3.0 UV-I 608 W/m 20.2 C 22.5 km/h
23.09.2018 13:08 22.5 C 74 % 1015.1 mbar 0.00 mm 13.4 km/h N-NW 345 2 min 4.4 UV-I 608 W/m 20.6 C 20.9 km/h
23.09.2018 13:06 22.4 C 74 % 1015.2 mbar 0.00 mm 14.3 km/h NO 51 2 min 3.8 UV-I 552 W/m 20.3 C 19.3 km/h
23.09.2018 13:04 22.3 C 72 % 1015.2 mbar 0.00 mm 14.6 km/h NO 48 2 min 3.7 UV-I 552 W/m 20.1 C 25.7 km/h
23.09.2018 13:02 22.3 C 72 % 1015.2 mbar 0.00 mm 14.0 km/h NO 48 2 min 3.5 UV-I 320 W/m 20.2 C 24.1 km/h
23.09.2018 13:00 22.4 C 73 % 1015.4 mbar 0.00 mm 11.1 km/h NO 52 0 min 2.6 UV-I 197 W/m 21.0 C 19.3 km/h
_ Min-Zeit 09:12 19:04 20:56 - 00:54 - - - - - 08:54 01:00
Minimum _ 10.1 C 50 % 1010.4 mbar - 0.0 km/h - - - - - 4.9 C 0.0 km/h
_ Max-Zeit 18:30 06:26 12:16 23:54 22:48 - - 13:02 13:14 15:04 15:42 22:48
Maximum _ 26.4 C 95 % 1030.5 mbar 0.40 mm 31.4 km/h
NW
- - 2 min 4.5 UV-I 789 W/m 26.3 C 51.5 km/h
N-NW
Durchschnitt _ 17.6 C 78 % 1019.1 mbar #12.80 mm 8.2 km/h N-NO - #18 min. 1.1 UV-I 108 W/m 16.6 C 13.9 km/h